Data for 05/10/2011

Time Sea-Level Adjusted Pressure Absolute Pressure Temperature Relative Humidity Dew Point Precipitation   
(mb) (inHg) (mb) (inHg) (C) (F) (%) (C) (F) (mm) (in)
00:01 1014 29.94 843 24.89 1.8 35.2 98 1.4 34.5 2.126 0.084
00:02 1014 29.94 843 24.89 1.8 35.2 98 1.4 34.6 2.137 0.084
00:03 1014 29.94 843 24.89 1.8 35.2 98 1.4 34.5 2.109 0.083
00:04 1014 29.94 843 24.89 1.8 35.2 98 1.5 34.6 2.103 0.083
00:05 1014 29.94 843 24.89 1.8 35.2 98 1.4 34.6 2.109 0.083
00:06 1014 29.94 843 24.89 1.8 35.2 98 1.5 34.6 2.155 0.085
00:07 1014 29.94 843 24.89 1.8 35.3 98 1.5 34.7 2.172 0.086
00:08 1014 29.94 843 24.89 1.8 35.3 98 1.5 34.7 2.166 0.085
00:09 1014 29.94 843 24.89 1.8 35.3 98 1.5 34.7 2.166 0.085
00:10 1014 29.94 843 24.89 1.8 35.3 98 1.5 34.6 2.177 0.086
00:11 1014 29.94 843 24.89 1.9 35.4 98 1.6 34.8 2.211 0.087
00:12 1014 29.94 843 24.89 1.9 35.3 98 1.5 34.7 2.206 0.087
00:13 1014 29.94 843 24.89 1.8 35.3 98 1.5 34.7 2.194 0.086
00:14 1014 29.94 843 24.89 1.8 35.3 98 1.5 34.7 2.211 0.087
00:15 1014 29.94 843 24.89 1.9 35.4 98 1.5 34.8 2.257 0.089
00:16 1014 29.94 843 24.89 1.8 35.3 98 1.5 34.7 2.217 0.087
00:17 1014 29.94 843 24.89 1.8 35.3 97 1.5 34.6 2.206 0.087
00:18 1014 29.94 843 24.89 1.8 35.3 98 1.5 34.6 2.189 0.086
00:19 1014 29.94 843 24.89 1.8 35.3 97 1.5 34.7 2.194 0.086
00:20 1014 29.94 843 24.89 1.9 35.3 98 1.5 34.7 2.245 0.088
00:21 1014 29.94 843 24.89 1.9 35.4 98 1.6 34.8 2.257 0.089
00:22 1014 29.94 843 24.89 1.9 35.4 98 1.6 34.8 2.274 0.09
00:23 1014 29.94 843 24.89 1.9 35.4 98 1.6 34.8 2.268 0.089
00:24 1014 29.94 843 24.89 1.9 35.4 98 1.6 34.8 2.308 0.091
00:25 1014 29.94 843 24.89 1.9 35.4 98 1.6 34.8 2.262 0.089
00:26 1014 29.94 843 24.89 1.9 35.5 98 1.6 34.9 2.308 0.091
00:27 1014 29.94 843 24.89 1.9 35.4 98 1.6 34.8 2.262 0.089
00:28 1014 29.94 843 24.89 1.9 35.4 98 1.6 34.8 2.279 0.09
00:29 1014 29.94 843 24.89 1.9 35.5 98 1.6 34.9 2.285 0.09
00:30 1014 29.94 843 24.89 1.9 35.5 98 1.6 34.9 2.246 0.088
00:31 1014 29.94 843 24.89 1.9 35.5 98 1.6 34.9 2.313 0.091
00:32 1014 29.94 843 24.89 1.9 35.5 98 1.6 34.9 2.308 0.091
00:33 1014 29.94 843 24.89 1.9 35.5 98 1.6 34.9 2.291 0.09
00:34 1014 29.94 843 24.89 2 35.5 98 1.6 34.9 2.291 0.09
00:35 1014 29.94 843 24.89 2 35.5 98 1.6 34.9 2.347 0.092
00:36 1014 29.94 843 24.89 1.9 35.5 98 1.6 34.9 2.319 0.091
00:37 1014 29.94 843 24.89 2 35.5 98 1.6 34.9 2.268 0.089
00:38 1014 29.94 843 24.89 2 35.6 98 1.7 35 2.376 0.094
00:39 1014 29.94 843 24.89 2 35.6 98 1.7 35 2.336 0.092
00:40 1014 29.94 843 24.89 2 35.6 98 1.7 35.1 2.381 0.094
00:41 1014 29.94 843 24.89 2 35.7 98 1.7 35.1 2.387 0.094
00:42 1014 29.94 843 24.89 2 35.7 98 1.7 35.1 2.404 0.095
00:43 1014 29.94 843 24.89 2 35.7 98 1.7 35 2.415 0.095
00:44 1014 29.94 843 24.89 2.1 35.7 98 1.7 35.1 2.41 0.095
00:45 1014 29.94 843 24.89 2 35.7 98 1.7 35.1 2.461 0.097
00:46 1014 29.94 843 24.89 2 35.7 98 1.7 35 2.41 0.095
00:47 1014 29.94 843 24.89 2 35.7 98 1.7 35 2.415 0.095
00:48 1014 29.94 843 24.89 2.1 35.8 97 1.7 35.1 2.404 0.095
00:49 1014 29.94 843 24.89 2.1 35.7 97 1.7 35 2.404 0.095
00:50 1014 29.94 843 24.89 2 35.7 97 1.7 35 2.398 0.094
00:51 1014 29.94 843 24.89 2.1 35.7 97 1.7 35 2.376 0.094
00:52 1014 29.94 843 24.89 2 35.7 97 1.6 34.9 2.381 0.094
00:53 1014 29.94 843 24.89 2 35.7 97 1.6 34.9 2.427 0.096
00:54 1014 29.94 843 24.89 2 35.7 97 1.6 34.9 2.364 0.093
00:55 1014 29.94 843 24.89 2 35.7 97 1.6 34.9 2.398 0.094
00:56 1014 29.94 843 24.89 2 35.7 97 1.6 34.9 2.415 0.095
00:57 1014 29.94 843 24.89 2 35.7 97 1.6 34.9 2.404 0.095
00:58 1014 29.94 843 24.89 2 35.6 97 1.6 34.9 2.421 0.095
00:59 1014 29.94 843 24.89 2 35.7 97 1.6 34.9 2.415 0.095
01:00 1014 29.94 843 24.89 2 35.6 97 1.6 34.9 2.432 0.096
01:01 1014 29.94 843 24.89 2 35.6 97 1.6 34.9 2.404 0.095
01:02 1014 29.94 843 24.89 2 35.6 97 1.6 34.9 2.37 0.093
01:03 1014 29.94 843 24.89 2 35.6 97 1.6 34.9 2.398 0.094
01:04 1014 29.94 843 24.89 2 35.6 97 1.6 34.9 2.387 0.094
01:05 1014 29.94 843 24.89 2 35.7 97 1.6 35 2.449 0.096
01:06 1014 29.94 843 24.89 2.1 35.7 97 1.7 35 2.415 0.095
01:07 1014 29.94 843 24.89 2 35.6 97 1.6 35 2.438 0.096
01:08 1014 29.94 843 24.89 2.1 35.7 98 1.7 35.1 2.461 0.097
01:09 1014 29.94 843 24.89 2.1 35.7 97 1.7 35.1 2.449 0.096
01:10 1014 29.94 843 24.89 2.1 35.7 98 1.7 35.1 2.483 0.098
01:11 1014 29.94 843 24.89 2.1 35.7 98 1.7 35.1 2.461 0.097
01:12 1014 29.94 843 24.89 2.1 35.8 97 1.7 35.1 2.466 0.097
01:13 1014 29.94 843 24.89 2.1 35.8 98 1.8 35.2 2.472 0.097
01:14 1014 29.94 843 24.89 2.1 35.7 98 1.7 35.1 2.449 0.096
01:15 1014 29.94 843 24.89 2.1 35.8 98 1.8 35.2 2.489 0.098
01:16 1014 29.94 843 24.89 2.1 35.8 98 1.8 35.2 2.483 0.098
01:17 1014 29.94 843 24.89 2.2 35.9 98 1.8 35.2 2.512 0.099
01:18 1014 29.94 843 24.89 2.1 35.8 98 1.8 35.2 2.472 0.097
01:19 1014 29.94 843 24.89 2.1 35.9 97 1.8 35.2 2.5 0.098
01:20 1014 29.94 843 24.89 2.1 35.9 98 1.8 35.3 2.551 0.1
01:21 1014 29.94 843 24.89 2.2 35.9 98 1.9 35.4 2.58 0.102
01:22 1014 29.94 843 24.89 2.2 36 98 1.9 35.4 2.574 0.101
01:23 1014 29.94 843 24.89 2.2 36 98 1.9 35.5 2.625 0.103
01:24 1014 29.94 843 24.89 2.2 36 98 1.9 35.5 2.614 0.103
01:25 1014 29.94 843 24.89 2.3 36.1 98 1.9 35.5 2.614 0.103
01:26 1014 29.94 843 24.89 2.3 36.2 98 2 35.6 2.608 0.103
01:27 1014 29.94 843 24.89 2.3 36.2 98 2 35.6 2.642 0.104
01:28 1014 29.94 843 24.89 2.3 36.1 98 2 35.6 2.659 0.105
01:29 1014 29.94 843 24.89 2.3 36.1 98 2 35.5 2.665 0.105
01:30 1014 29.94 843 24.89 2.3 36.1 98 2 35.5 2.659 0.105
01:31 1014 29.94 843 24.89 2.3 36.1 98 1.9 35.5 2.636 0.104
01:32 1014 29.94 843 24.89 2.3 36.1 98 1.9 35.4 2.619 0.103
01:33 1014 29.94 843 24.89 2.2 36 98 1.9 35.4 2.636 0.104
01:34 1014 29.94 843 24.89 2.3 36.1 98 2 35.5 2.602 0.102
01:35 1014 29.94 843 24.89 2.3 36.1 98 2 35.6 2.71 0.107
01:36 1014 29.94 843 24.89 2.3 36.2 98 2 35.6 2.693 0.106
01:37 1014 29.94 843 24.89 2.3 36.2 98 2 35.7 2.738 0.108
01:38 1014 29.94 843 24.89 2.3 36.2 98 2 35.7 2.721 0.107
01:39 1014 29.94 843 24.89 2.4 36.3 98 2.1 35.7 2.699 0.106
01:40 1014 29.94 843 24.89 2.4 36.3 98 2.1 35.8 2.772 0.109
01:41 1014 29.94 843 24.89 2.4 36.3 98 2.1 35.8 2.761 0.109
01:42 1014 29.94 843 24.89 2.5 36.4 98 2.2 35.9 2.789 0.11
01:43 1014 29.94 843 24.89 2.5 36.5 98 2.2 36 2.817 0.111
01:44 1014 29.94 843 24.89 2.5 36.5 98 2.3 36.1 2.868 0.113
01:45 1014 29.94 843 24.89 2.5 36.5 98 2.2 36 2.891 0.114
01:46 1014 29.94 843 24.89 2.5 36.5 98 2.3 36.1 2.942 0.116
01:47 1014 29.94 843 24.89 2.5 36.6 98 2.3 36.1 2.914 0.115
01:48 1014 29.94 843 24.89 2.5 36.6 98 2.3 36.1 2.931 0.115
01:49 1014 29.94 843 24.89 2.6 36.6 98 2.3 36.1 2.942 0.116
01:50 1014 29.94 843 24.89 2.6 36.6 98 2.3 36.1 2.919 0.115
01:51 1014 29.94 843 24.89 2.6 36.7 98 2.3 36.2 2.97 0.117
01:52 1014 29.94 843 24.89 2.6 36.6 98 2.3 36.1 2.948 0.116
01:53 1014 29.94 843 24.89 2.6 36.6 98 2.3 36.1 2.959 0.116
01:54 1014 29.94 843 24.89 2.6 36.6 98 2.3 36.1 2.931 0.115
01:55 1014 29.94 843 24.89 2.6 36.6 98 2.3 36.1 2.931 0.115
01:56 1014 29.94 843 24.89 2.6 36.6 98 2.3 36.1 2.965 0.117
01:57 1014 29.94 843 24.89 2.6 36.6 98 2.3 36.1 2.97 0.117
01:58 1014 29.94 843 24.89 2.6 36.6 98 2.3 36.1 2.942 0.116
01:59 1014 29.94 843 24.89 2.6 36.7 98 2.3 36.2 2.942 0.116
02:00 1014 29.94 843 24.89 2.6 36.6 98 2.3 36.1 2.908 0.114
02:01 1014 29.94 843 24.89 2.6 36.6 98 2.3 36.1 2.908 0.114
02:02 1014 29.94 843 24.89 2.6 36.6 98 2.3 36.1 2.959 0.116
02:03 1014 29.94 843 24.89 2.6 36.6 98 2.3 36.1 2.942 0.116
02:04 1014 29.94 843 24.89 2.6 36.6 98 2.3 36.1 2.919 0.115
02:05 1014 29.94 843 24.89 2.6 36.7 98 2.3 36.2 2.931 0.115
02:06 1014 29.94 843 24.89 2.6 36.6 98 2.3 36.1 2.953 0.116
02:07 1014 29.94 843 24.89 2.6 36.6 98 2.3 36.1 2.931 0.115
02:08 1014 29.94 843 24.89 2.6 36.6 98 2.3 36.1 2.919 0.115
02:09 1014 29.94 843 24.89 2.6 36.6 98 2.3 36.1 2.931 0.115
02:10 1014 29.94 843 24.89 2.6 36.6 98 2.3 36.1 2.908 0.114
02:11 1014 29.94 843 24.89 2.6 36.6 98 2.3 36.1 2.946 0.116
02:12 1014 29.94 843 24.89 2.6 36.7 98 2.3 36.2 2.907 0.114
02:13 1014 29.94 843 24.89 2.6 36.7 98 2.3 36.2 2.929 0.115
02:14 1014 29.94 843 24.89 2.6 36.7 98 2.3 36.2 2.941 0.116
02:15 1014 29.94 843 24.89 2.6 36.7 98 2.3 36.2 2.941 0.116
02:16 1014 29.94 843 24.89 2.6 36.7 98 2.3 36.2 2.958 0.116
02:17 1014 29.94 843 24.89 2.6 36.7 98 2.3 36.2 2.998 0.118
02:18 1014 29.94 843 24.89 2.6 36.7 98 2.3 36.2 2.969 0.117
02:19 1014 29.94 843 24.89 2.6 36.7 98 2.3 36.2 3.009 0.118
02:20 1014 29.94 843 24.89 2.6 36.7 98 2.4 36.2 2.958 0.116
02:21 1014 29.94 843 24.89 2.6 36.7 98 2.3 36.2 2.987 0.118
02:22 1014 29.94 843 24.89 2.6 36.7 98 2.3 36.2 3.026 0.119
02:23 1014 29.94 843 24.89 2.7 36.8 98 2.4 36.3 2.985 0.118
02:24 1014 29.94 843 24.89 2.6 36.8 98 2.4 36.3 3.036 0.12
02:25 1014 29.94 843 24.89 2.7 36.8 98 2.3 36.2 2.996 0.118
02:26 1014 29.94 843 24.89 2.7 36.8 98 2.4 36.3 3.035 0.119
02:27 1014 29.94 843 24.89 2.7 36.8 98 2.3 36.2 3.018 0.119
02:28 1014 29.94 843 24.89 2.7 36.8 98 2.3 36.2 2.978 0.117
02:29 1014 29.94 843 24.89 2.7 36.8 98 2.3 36.2 3.023 0.119
02:30 1014 29.94 843 24.89 2.7 36.8 98 2.4 36.2 2.989 0.118
02:31 1014 29.94 843 24.89 2.7 36.8 98 2.4 36.3 3.086 0.121
02:32 1014 29.94 843 24.89 2.7 36.9 98 2.4 36.2 3.052 0.12
02:33 1014 29.94 843 24.89 2.7 36.8 98 2.3 36.2 3.018 0.119
02:34 1014 29.94 843 24.89 2.7 36.8 98 2.4 36.2 3.006 0.118
02:35 1014 29.94 843 24.89 2.7 36.8 98 2.4 36.2 3.057 0.12
02:36 1014 29.94 843 24.89 2.7 36.8 98 2.4 36.2 3.063 0.121
02:37 1014 29.94 843 24.89 2.7 36.8 98 2.4 36.2 3.006 0.118
02:38 1014 29.94 843 24.89 2.7 36.8 98 2.4 36.3 3.051 0.12
02:39 1014 29.94 843 24.89 2.7 36.8 98 2.4 36.2 3.045 0.12
02:40 1014 29.94 843 24.89 2.7 36.8 98 2.3 36.2 3.005 0.118
02:41 1014 29.94 843 24.89 2.7 36.8 98 2.3 36.2 3.027 0.119
02:42 1014 29.94 843 24.89 2.7 36.8 98 2.3 36.2 3.033 0.119
02:43 1014 29.94 843 24.89 2.7 36.9 98 2.4 36.3 3.022 0.119
02:44 1014 29.94 843 24.89 2.7 36.9 98 2.4 36.3 3.004 0.118
02:45 1014 29.94 843 24.89 2.7 36.8 98 2.4 36.2 3.038 0.12
02:46 1014 29.94 843 24.89 2.7 36.8 98 2.3 36.2 3.021 0.119
02:47 1014 29.94 843 24.89 2.7 36.8 98 2.3 36.2 3.027 0.119
02:48 1014 29.94 843 24.89 2.7 36.8 98 2.3 36.2 3.032 0.119
02:49 1014 29.94 843 24.89 2.7 36.8 98 2.3 36.2 3.055 0.12
02:50 1014 29.94 843 24.89 2.7 36.8 97 2.3 36.1 3.038 0.12
02:51 1014 29.94 843 24.89 2.6 36.8 97 2.3 36.1 3.015 0.119
02:52 1014 29.94 843 24.89 2.7 36.8 97 2.3 36.1 3.032 0.119
02:53 1014 29.94 843 24.89 2.6 36.7 97 2.2 36 3.004 0.118
02:54 1014 29.94 843 24.89 2.6 36.8 97 2.2 36 3.043 0.12
02:55 1014 29.94 843 24.89 2.6 36.7 97 2.2 36 2.981 0.117
02:56 1014 29.94 843 24.89 2.6 36.8 97 2.3 36.1 3.009 0.118
02:57 1014 29.94 843 24.89 2.6 36.7 97 2.2 36 3.02 0.119
02:58 1014 29.94 843 24.89 2.6 36.8 97 2.2 36 3.003 0.118
02:59 1014 29.94 843 24.89 2.6 36.7 97 2.2 35.9 2.981 0.117
03:00 1014 29.94 843 24.89 2.6 36.7 97 2.2 35.9 2.969 0.117
03:01 1014 29.94 843 24.89 2.6 36.7 97 2.1 35.9 2.969 0.117
03:02 1014 29.94 843 24.89 2.6 36.7 97 2.2 35.9 3.003 0.118
03:03 1014 29.94 843 24.89 2.6 36.7 97 2.2 36 3.02 0.119
03:04 1014 29.94 843 24.89 2.6 36.7 97 2.2 35.9 2.997 0.118
03:05 1014 29.94 843 24.89 2.6 36.7 97 2.2 35.9 2.98 0.117
03:06 1014 29.94 843 24.89 2.6 36.7 97 2.2 35.9 2.98 0.117
03:07 1014 29.94 843 24.89 2.6 36.7 97 2.2 35.9 2.98 0.117
03:08 1014 29.94 843 24.89 2.6 36.7 97 2.1 35.8 3.003 0.118
03:09 1014 29.94 843 24.89 2.6 36.8 97 2.2 36 3.009 0.118
03:10 1014 29.94 843 24.89 2.6 36.7 97 2.2 35.9 2.975 0.117
03:11 1014 29.94 843 24.89 2.6 36.7 97 2.2 35.9 2.986 0.118
03:12 1014 29.94 843 24.89 2.6 36.7 97 2.2 35.9 2.98 0.117
03:13 1014 29.94 843 24.89 2.6 36.8 97 2.2 35.9 3.009 0.118
03:14 1014 29.94 843 24.89 2.6 36.7 97 2.1 35.9 2.963 0.117
03:15 1014 29.94 843 24.89 2.7 36.8 97 2.2 35.9 3.048 0.12
03:16 1014 29.94 843 24.89 2.7 36.8 97 2.2 35.9 2.986 0.118
03:17 1014 29.94 843 24.89 2.6 36.8 97 2.2 35.9 2.98 0.117
03:18 1014 29.94 843 24.89 2.6 36.7 97 2.1 35.9 2.992 0.118
03:19 1014 29.94 843 24.89 2.6 36.8 97 2.2 35.9 2.958 0.116
03:20 1014 29.94 843 24.89 2.7 36.8 97 2.2 35.9 3.025 0.119
03:21 1014 29.94 843 24.89 2.7 36.8 97 2.2 36 3.02 0.119
03:22 1014 29.94 843 24.89 2.7 36.8 97 2.2 36 2.997 0.118
03:23 1014 29.94 843 24.89 2.6 36.7 97 2.2 35.9 2.969 0.117
03:24 1014 29.94 843 24.89 2.6 36.7 97 2.2 35.9 2.98 0.117
03:25 1014 29.94 843 24.89 2.7 36.8 97 2.2 35.9 3.003 0.118
03:26 1014 29.94 843 24.89 2.6 36.8 97 2.2 35.9 3.014 0.119
03:27 1014 29.94 843 24.89 2.6 36.7 97 2.2 35.9 3.003 0.118
03:28 1014 29.94 843 24.89 2.6 36.7 97 2.2 35.9 3.048 0.12
03:29 1014 29.94 843 24.89 2.7 36.8 97 2.2 35.9 2.997 0.118
03:30 1014 29.94 843 24.89 2.6 36.7 97 2.1 35.8 2.991 0.118
03:31 1014 29.94 843 24.89 2.6 36.7 97 2.2 35.9 2.997 0.118
03:32 1014 29.94 843 24.89 2.7 36.8 97 2.2 36 3.031 0.119
03:33 1014 29.94 843 24.89 2.6 36.7 97 2.2 35.9 3.02 0.119
03:34 1014 29.94 843 24.89 2.7 36.8 97 2.2 36 3.025 0.119
03:35 1014 29.94 843 24.89 2.6 36.7 97 2.2 35.9 3.025 0.119
03:36 1014 29.94 843 24.89 2.7 36.8 97 2.2 36 3.031 0.119
03:37 1014 29.94 843 24.89 2.7 36.8 97 2.2 36 3.054 0.12
03:38 1014 29.94 843 24.89 2.7 36.8 97 2.2 36 3.048 0.12
03:39 1014 29.94 843 24.89 2.7 36.8 97 2.2 36 3.054 0.12
03:40 1014 29.94 843 24.89 2.7 36.8 97 2.2 35.9 3.065 0.121
03:41 1014 29.94 843 24.89 2.7 36.9 97 2.2 36 3.059 0.12
03:42 1014 29.94 843 24.89 2.7 36.9 97 2.2 36 3.116 0.123
03:43 1014 29.94 843 24.89 2.7 36.8 97 2.2 35.9 3.105 0.122
03:44 1014 29.94 843 24.89 2.7 36.9 97 2.2 36 3.082 0.121
03:45 1014 29.94 843 24.89 2.7 36.9 97 2.2 36 3.065 0.121
03:46 1014 29.94 843 24.89 2.7 36.8 97 2.2 36 3.088 0.122
03:47 1014 29.94 843 24.89 2.7 36.8 97 2.2 36 3.065 0.121
03:48 1014 29.94 843 24.89 2.7 36.9 97 2.2 36 3.076 0.121
03:49 1014 29.94 843 24.89 2.7 36.8 97 2.2 36 3.071 0.121
03:50 1014 29.94 843 24.89 2.7 36.9 97 2.2 36 3.093 0.122
03:51 1014 29.94 843 24.89 2.7 36.9 97 2.2 36 3.076 0.121
03:52 1014 29.94 843 24.89 2.7 36.9 97 2.2 36 3.071 0.121
03:53 1014 29.94 843 24.89 2.7 36.8 97 2.2 36 3.088 0.122
03:54 1014 29.94 843 24.89 2.7 36.9 97 2.2 36 3.088 0.122
03:55 1014 29.94 843 24.89 2.7 36.9 97 2.2 36 3.093 0.122
03:56 1014 29.94 843 24.89 2.8 37 96 2.2 36 3.127 0.123
03:57 1014 29.94 843 24.89 2.7 36.9 96 2.2 36 3.11 0.122
03:58 1014 29.94 843 24.89 2.7 36.9 97 2.2 36 3.116 0.123
03:59 1014 29.94 843 24.89 2.7 36.9 97 2.2 36 3.116 0.123
04:00 1014 29.94 843 24.89 2.8 37 97 2.3 36.1 3.11 0.122
04:01 1014 29.94 843 24.89 2.7 36.9 97 2.2 36 3.15 0.124
04:02 1014 29.94 843 24.89 2.7 36.9 97 2.2 36 3.139 0.124
04:03 1014 29.94 843 24.89 2.7 36.9 97 2.2 36 3.099 0.122
04:04 1014 29.94 843 24.89 2.7 36.9 97 2.2 36 3.11 0.122
04:05 1014 29.94 843 24.89 2.7 36.9 97 2.3 36.1 3.156 0.124
04:06 1014 29.94 843 24.89 2.7 36.9 97 2.2 36 3.139 0.124
04:07 1014 29.94 843 24.89 2.7 36.9 97 2.2 36 3.093 0.122
04:08 1014 29.94 843 24.89 2.7 36.8 97 2.2 35.9 3.076 0.121
04:09 1014 29.94 843 24.89 2.7 36.8 96 2.1 35.9 2.98 0.117
04:10 1014 29.94 843 24.89 2.6 36.7 96 2.1 35.7 2.929 0.115
04:11 1014 29.94 843 24.89 2.5 36.6 96 2 35.6 2.912 0.115
04:12 1014 29.94 843 24.89 2.5 36.5 97 2 35.6 2.878 0.113
04:13 1014 29.94 843 24.89 2.5 36.5 97 2 35.6 2.856 0.112
04:14 1014 29.94 843 24.89 2.4 36.4 97 2 35.6 2.844 0.112
04:15 1014 29.94 843 24.89 2.4 36.4 97 2 35.6 2.816 0.111
04:16 1014 29.94 843 24.89 2.5 36.4 97 2 35.6 2.844 0.112
04:17 1014 29.94 843 24.89 2.5 36.5 97 2.1 35.7 2.816 0.111
04:18 1014 29.94 843 24.89 2.5 36.5 97 2.1 35.7 2.861 0.113
04:19 1014 29.94 843 24.89 2.4 36.4 97 2 35.6 2.884 0.114
04:20 1014 29.94 843 24.89 2.5 36.5 97 2.1 35.7 2.822 0.111
04:21 1014 29.94 843 24.89 2.5 36.4 97 2.1 35.8 2.816 0.111
04:22 1014 29.94 843 24.89 2.5 36.5 98 2.2 35.9 2.912 0.115
04:23 1014 29.94 843 24.89 2.6 36.6 98 2.2 36 2.98 0.117
04:24 1014 29.94 843 24.89 2.6 36.7 98 2.3 36.1 2.974 0.117
04:25 1014 29.94 843 24.89 2.7 36.8 97 2.3 36.1 3.054 0.12
04:26 1014 29.94 843 24.89 2.7 36.9 97 2.3 36.2 3.093 0.122
04:27 1014 29.94 843 24.89 2.8 37 97 2.3 36.2 3.133 0.123
04:28 1014 29.94 843 24.89 2.8 37 97 2.3 36.2 3.139 0.124
04:29 1014 29.94 843 24.89 2.9 37.1 96 2.3 36.2 3.195 0.126
04:30 1014 29.94 843 24.89 2.8 37.1 96 2.3 36.1 3.201 0.126
04:31 1014 29.94 843 24.89 2.9 37.1 96 2.3 36.1 3.195 0.126
04:32 1014 29.94 843 24.89 2.9 37.2 96 2.3 36.1 3.19 0.126
04:33 1014 29.94 843 24.89 2.9 37.2 96 2.3 36.2 3.24 0.128
04:34 1014 29.94 843 24.89 2.9 37.3 96 2.3 36.2 3.229 0.127
04:35 1014 29.94 843 24.89 2.9 37.3 96 2.3 36.2 3.269 0.129
04:36 1014 29.94 843 24.89 2.9 37.3 96 2.3 36.2 3.246 0.128
04:37 1014 29.94 843 24.89 2.9 37.2 96 2.3 36.2 3.252 0.128
04:38 1014 29.94 843 24.89 2.9 37.2 96 2.3 36.2 3.28 0.129
04:39 1014 29.94 843 24.89 2.9 37.2 96 2.3 36.2 3.223 0.127
04:40 1014 29.94 843 24.89 2.9 37.2 96 2.3 36.1 3.235 0.127
04:41 1014 29.94 843 24.89 2.9 37.2 95 2.2 36 3.246 0.128
04:42 1014 29.94 843 24.89 3 37.3 95 2.3 36.1 3.218 0.127
04:43 1014 29.94 843 24.89 3 37.3 95 2.2 36 3.286 0.129
04:44 1014 29.94 843 24.89 3 37.3 95 2.2 35.9 3.325 0.131
04:45 1014 29.94 843 24.89 3 37.4 94 2.2 36 3.303 0.13
04:46 1014 29.94 843 24.89 3.1 37.5 95 2.3 36.1 3.348 0.132
04:47 1014 29.94 843 24.89 3 37.4 94 2.2 36 3.331 0.131
04:48 1014 29.94 843 24.89 3 37.4 95 2.2 36 3.348 0.132
04:49 1014 29.94 843 24.89 3 37.5 94 2.2 36 3.325 0.131
04:50 1014 29.94 843 24.89 3 37.4 94 2.1 35.7 3.314 0.13
04:51 1014 29.94 843 24.89 3.1 37.5 94 2.2 35.9 3.371 0.133
04:52 1014 29.94 843 24.89 3 37.5 94 2.2 36 3.348 0.132
04:53 1014 29.94 843 24.89 3.1 37.5 94 2.2 36 3.354 0.132
04:54 1014 29.94 843 24.89 3.1 37.5 94 2.2 36 3.382 0.133
04:55 1014 29.94 843 24.89 3.1 37.5 94 2.2 36 3.354 0.132
04:56 1014 29.94 843 24.89 3 37.5 94 2.2 36 3.348 0.132
04:57 1014 29.94 843 24.89 3 37.4 94 2.1 35.7 3.371 0.133
04:58 1014 29.94 843 24.89 3.1 37.5 94 2.1 35.9 3.399 0.134
04:59 1014 29.94 843 24.89 3.1 37.5 94 2.2 36 3.405 0.134
05:00 1014 29.94 843 24.89 3.1 37.5 94 2.2 36 3.388 0.133
05:01 1014 29.94 843 24.89 3 37.5 95 2.3 36.1 3.399 0.134
05:02 1014 29.94 843 24.89 3 37.5 95 2.3 36.1 3.331 0.131
05:03 1014 29.94 843 24.89 3 37.4 95 2.3 36.1 3.371 0.133
05:04 1014 29.94 843 24.89 3 37.4 95 2.3 36.1 3.337 0.131
05:05 1014 29.94 843 24.89 3 37.4 95 2.3 36.1 3.274 0.129
05:06 1014 29.94 843 24.89 3 37.3 95 2.3 36.1 3.314 0.13
05:07 1014 29.94 843 24.89 3 37.3 95 2.3 36.1 3.303 0.13
05:08 1014 29.94 843 24.89 3 37.3 95 2.3 36.1 3.337 0.131
05:09 1014 29.94 843 24.89 3 37.3 95 2.3 36.1 3.325 0.131
05:10 1014 29.94 843 24.89 3 37.4 95 2.3 36.2 3.303 0.13
05:11 1014 29.94 843 24.89 3 37.4 95 2.3 36.1 3.354 0.132
05:12 1014 29.94 843 24.89 3 37.4 95 2.3 36.1 3.354 0.132
05:13 1014 29.94 843 24.89 3 37.4 95 2.3 36.1 3.325 0.131
05:14 1014 29.94 843 24.89 3 37.4 95 2.3 36.1 3.371 0.133
05:15 1014 29.94 843 24.89 3 37.4 95 2.3 36.2 3.359 0.132
05:16 1014 29.94 843 24.89 3 37.4 95 2.3 36.1 3.376 0.133
05:17 1014 29.94 843 24.89 3 37.4 95 2.3 36.1 3.365 0.132
05:18 1014 29.94 843 24.89 3 37.4 95 2.3 36.1 3.337 0.131
05:19 1014 29.94 843 24.89 3 37.4 95 2.3 36.1 3.371 0.133
05:20 1014 29.94 843 24.89 3 37.4 95 2.3 36.1 3.359 0.132
05:21 1014 29.94 843 24.89 3 37.4 95 2.3 36.1 3.393 0.134
05:22 1014 29.94 843 24.89 3 37.4 95 2.3 36.1 3.371 0.133
05:23 1014 29.94 843 24.89 3 37.4 95 2.3 36.1 3.382 0.133
05:24 1014 29.94 843 24.89 3 37.4 95 2.2 36 3.393 0.134
05:25 1014 29.94 843 24.89 3.1 37.5 95 2.3 36.1 3.359 0.132
05:26 1014 29.94 843 24.89 3 37.5 95 2.3 36.1 3.405 0.134
05:27 1014 29.94 843 24.89 3.1 37.5 95 2.3 36.1 3.382 0.133
05:28 1014 29.94 843 24.89 3.1 37.5 95 2.3 36.1 3.422 0.135
05:29 1014 29.94 843 24.89 3 37.4 95 2.2 36 3.388 0.133
05:30 1014 29.94 843 24.89 3 37.5 95 2.3 36.1 3.433 0.135
05:31 1014 29.94 843 24.89 3 37.5 95 2.3 36.1 3.41 0.134
05:32 1014 29.94 843 24.89 3 37.4 95 2.3 36.1 3.388 0.133
05:33 1014 29.94 843 24.89 3 37.4 95 2.3 36.1 3.371 0.133
05:34 1014 29.94 843 24.89 3 37.4 95 2.3 36.1 3.354 0.132
05:35 1014 29.94 843 24.89 3 37.4 95 2.3 36.1 3.399 0.134
05:36 1014 29.94 843 24.89 3 37.4 95 2.3 36.1 3.365 0.132
05:37 1014 29.94 843 24.89 3 37.4 95 2.2 36 3.388 0.133
05:38 1014 29.94 843 24.89 3 37.4 95 2.3 36.1 3.376 0.133
05:39 1014 29.94 843 24.89 3 37.4 95 2.3 36.1 3.371 0.133
05:40 1014 29.94 843 24.89 3 37.4 95 2.3 36.1 3.376 0.133
05:41 1014 29.94 843 24.89 3 37.4 95 2.3 36.1 3.348 0.132
05:42 1014 29.94 843 24.89 3 37.4 95 2.3 36.1 3.337 0.131
05:43 1014 29.94 843 24.89 3 37.4 95 2.3 36.1 3.365 0.132
05:44 1014 29.94 843 24.89 3 37.3 95 2.3 36.1 3.342 0.132
05:45 1014 29.94 843 24.89 3 37.4 95 2.3 36.2 3.342 0.132
05:46 1014 29.94 843 24.89 3 37.4 95 2.3 36.2 3.337 0.131
05:47 1014 29.94 843 24.89 3 37.3 95 2.3 36.1 3.365 0.132
05:48 1014 29.94 843 24.89 3 37.3 96 2.3 36.2 3.376 0.133
05:49 1014 29.94 843 24.89 2.9 37.3 96 2.3 36.1 3.331 0.131
05:50 1014 29.94 843 24.89 2.9 37.2 96 2.3 36.1 3.348 0.132
05:51 1014 29.94 843 24.89 3 37.3 96 2.3 36.2 3.303 0.13
05:52 1014 29.94 843 24.89 2.9 37.3 96 2.3 36.2 3.314 0.13
05:53 1014 29.94 843 24.89 2.9 37.2 95 2.2 36 3.263 0.128
05:54 1014 29.94 843 24.89 2.9 37.3 96 2.3 36.1 3.308 0.13
05:55 1014 29.94 843 24.89 2.9 37.2 95 2.2 36 3.32 0.131
05:56 1014 29.94 843 24.89 2.9 37.3 95 2.3 36.1 3.291 0.13
05:57 1014 29.94 843 24.89 2.9 37.3 95 2.3 36.1 3.286 0.129
05:58 1014 29.94 843 24.89 2.9 37.3 95 2.2 36 3.297 0.13
05:59 1014 29.94 843 24.89 2.9 37.3 95 2.2 36 3.274 0.129
06:00 1014 29.94 843 24.89 2.9 37.3 95 2.2 36 3.269 0.129
06:01 1014 29.94 843 24.89 2.9 37.3 95 2.3 36.1 3.303 0.13
06:02 1014 29.94 843 24.89 2.9 37.3 95 2.3 36.1 3.314 0.13
06:03 1014 29.94 843 24.89 2.9 37.2 95 2.2 36 3.32 0.131
06:04 1014 29.94 843 24.89 2.9 37.2 95 2.3 36.1 3.274 0.129
06:05 1014 29.94 843 24.89 2.9 37.2 95 2.2 36 3.314 0.13
06:06 1014 29.94 843 24.89 2.9 37.3 95 2.3 36.1 3.32 0.131
06:07 1014 29.94 844 24.92 2.9 37.3 95 2.2 36 3.32 0.131
06:08 1014 29.94 843 24.89 2.9 37.3 95 2.2 36 3.303 0.13
06:09 1014 29.94 843 24.89 2.9 37.3 95 2.2 36 3.291 0.13
06:10 1014 29.94 844 24.92 3 37.3 95 2.3 36.1 3.32 0.131
06:11 1014 29.94 843 24.89 3 37.4 95 2.3 36.1 3.303 0.13
06:12 1014 29.94 843 24.89 3 37.3 95 2.3 36.1 3.325 0.131
06:13 1014 29.94 843 24.89 3 37.3 95 2.3 36.1 3.325 0.131
06:14 1014 29.94 843 24.89 2.9 37.3 95 2.2 35.9 3.331 0.131
06:15 1014 29.94 843 24.89 3 37.3 95 2.2 36 3.308 0.13
06:16 1014 29.94 843 24.89 3 37.4 95 2.3 36.1 3.382 0.133
06:17 1014 29.94 843 24.89 3 37.3 95 2.3 36.1 3.371 0.133
06:18 1014 29.94 843 24.89 3 37.4 95 2.3 36.2 3.388 0.133
06:19 1014 29.94 843 24.89 3 37.3 95 2.3 36.1 3.348 0.132
06:20 1014 29.94 843 24.89 3 37.4 95 2.3 36.1 3.342 0.132
06:21 1014 29.94 844 24.92 3 37.3 95 2.2 36 3.348 0.132
06:22 1014 29.94 844 24.92 3 37.4 95 2.2 36 3.359 0.132
06:23 1014 29.94 844 24.92 3 37.4 95 2.2 36 3.371 0.133
06:24 1014 29.94 844 24.92 3 37.4 94 2.1 35.8 3.354 0.132
06:25 1014 29.94 844 24.92 3 37.5 94 2.2 36 3.388 0.133
06:26 1014 29.94 844 24.92 3 37.4 94 2.1 35.8 3.388 0.133
06:27 1014 29.94 844 24.92 3 37.5 94 2.1 35.8 3.354 0.132
06:28 1014 29.94 844 24.92 3 37.5 93 2.1 35.7 3.399 0.134
06:29 1014 29.94 844 24.92 3.1 37.5 93 2 35.6 3.354 0.132
06:30 1014 29.94 844 24.92 3.1 37.5 93 2 35.5 3.388 0.133
06:31 1014 29.94 844 24.92 3.1 37.6 93 2.1 35.8 3.41 0.134
06:32 1014 29.94 844 24.92 3.1 37.5 93 2 35.6 3.41 0.134
06:33 1014 29.94 844 24.92 3.1 37.5 93 2.1 35.7 3.422 0.135
06:34 1014 29.94 844 24.92 3.1 37.5 93 2.1 35.7 3.416 0.134
06:35 1014 29.94 844 24.92 3 37.5 93 2 35.6 3.399 0.134
06:36 1014 29.94 844 24.92 3 37.5 93 2 35.6 3.405 0.134
06:37 1014 29.94 844 24.92 3 37.4 93 1.9 35.4 3.405 0.134
06:38 1014 29.94 844 24.92 3 37.4 93 1.9 35.5 3.359 0.132
06:39 1014 29.94 844 24.92 3 37.4 93 1.9 35.4 3.359 0.132
06:40 1014 29.94 844 24.92 3 37.3 93 1.9 35.4 3.354 0.132
06:41 1014 29.94 844 24.92 3 37.3 93 1.9 35.4 3.314 0.13
06:42 1014 29.94 844 24.92 2.9 37.3 93 1.9 35.4 3.303 0.13
06:43 1014 29.94 844 24.92 2.9 37.3 93 1.9 35.4 3.286 0.129
06:44 1014 29.94 844 24.92 2.9 37.3 93 2 35.5 3.325 0.131
06:45 1014 29.94 844 24.92 2.9 37.3 94 2 35.6 3.325 0.131
06:46 1015 29.97 844 24.92 2.9 37.3 94 2.1 35.7 3.303 0.13
06:47 1015 29.97 844 24.92 2.9 37.2 94 2.1 35.7 3.297 0.13
06:48 1015 29.97 844 24.92 2.9 37.2 95 2.1 35.8 3.28 0.129
06:49 1015 29.97 844 24.92 2.9 37.1 95 2.1 35.8 3.274 0.129
06:50 1015 29.97 844 24.92 2.9 37.2 95 2.1 35.8 3.269 0.129
06:51 1015 29.97 844 24.92 2.9 37.1 95 2.2 35.9 3.269 0.129
06:52 1015 29.97 844 24.92 2.8 37.1 95 2.1 35.8 3.235 0.127
06:53 1015 29.97 844 24.92 2.9 37.2 95 2.2 35.9 3.257 0.128
06:54 1015 29.97 844 24.92 2.8 37.1 95 2.2 35.9 3.257 0.128
06:55 1015 29.97 844 24.92 2.9 37.1 95 2.2 35.9 3.252 0.128
06:56 1015 29.97 844 24.92 2.9 37.1 95 2.2 35.9 3.257 0.128
06:57 1015 29.97 844 24.92 2.8 37.1 96 2.2 35.9 3.24 0.128
06:58 1015 29.97 844 24.92 2.8 37.1 95 2.2 35.9 3.235 0.127
06:59 1015 29.97 844 24.92 2.8 37 95 2.1 35.8 3.212 0.126
07:00 1015 29.97 844 24.92 2.8 37 96 2.2 35.9 3.218 0.127
07:01 1015 29.97 844 24.92 2.8 37.1 95 2.2 35.9 3.257 0.128
07:02 1015 29.97 844 24.92 2.8 37.1 95 2.1 35.9 3.229 0.127
07:03 1015 29.97 844 24.92 2.8 37.1 95 2.1 35.9 3.201 0.126
07:04 1015 29.97 844 24.92 2.8 37 95 2.1 35.8 3.184 0.125
07:05 1015 29.97 844 24.92 2.8 37.1 95 2.1 35.9 3.218 0.127
07:06 1015 29.97 844 24.92 2.8 37.1 95 2.2 35.9 3.223 0.127
07:07 1015 29.97 844 24.92 2.8 37.1 95 2.2 35.9 3.184 0.125
07:08 1015 29.97 844 24.92 2.8 37 95 2.1 35.8 3.235 0.127
07:09 1015 29.97 844 24.92 2.8 37.1 95 2.1 35.8 3.184 0.125
07:10 1015 29.97 844 24.92 2.8 37.1 95 2.2 35.9 3.195 0.126
07:11 1015 29.97 844 24.92 2.8 37.1 96 2.2 36 3.207 0.126
07:12 1015 29.97 844 24.92 2.8 37.1 96 2.2 35.9 3.223 0.127
07:13 1015 29.97 844 24.92 2.8 37 96 2.2 35.9 3.201 0.126
07:14 1015 29.97 844 24.92 2.8 37.1 96 2.2 36 3.207 0.126
07:15 1015 29.97 844 24.92 2.8 37 96 2.2 36 3.212 0.126
07:16 1015 29.97 844 24.92 2.8 37.1 96 2.2 36 3.218 0.127
07:17 1015 29.97 844 24.92 2.8 37.1 96 2.2 36 3.212 0.126
07:18 1015 29.97 844 24.92 2.8 37 96 2.2 36 3.229 0.127
07:19 1015 29.97 844 24.92 2.8 37 96 2.2 36 3.229 0.127
07:20 1015 29.97 844 24.92 2.8 37 96 2.2 36 3.167 0.125
07:21 1015 29.97 844 24.92 2.8 37 96 2.2 36 3.19 0.126
07:22 1015 29.97 844 24.92 2.8 37 96 2.3 36.1 3.173 0.125
07:23 1015 29.97 844 24.92 2.8 37 96 2.2 36 3.195 0.126
07:24 1015 29.97 844 24.92 2.8 37 96 2.3 36.1 3.167 0.125
07:25 1015 29.97 844 24.92 2.8 37 96 2.3 36.1 3.223 0.127
07:26 1015 29.97 844 24.92 2.8 37 96 2.2 36 3.195 0.126
07:27 1015 29.97 844 24.92 2.8 37.1 96 2.3 36.1 3.201 0.126
07:28 1015 29.97 844 24.92 2.8 37.1 96 2.3 36.2 3.218 0.127
07:29 1015 29.97 844 24.92 2.9 37.2 96 2.3 36.2 3.24 0.128
07:30 1015 29.97 844 24.92 2.9 37.1 96 2.3 36.2 3.252 0.128
07:31 1015 29.97 844 24.92 2.9 37.1 96 2.3 36.2 3.24 0.128
07:32 1015 29.97 844 24.92 2.9 37.2 96 2.3 36.2 3.24 0.128
07:33 1015 29.97 844 24.92 2.9 37.2 96 2.3 36.2 3.246 0.128
07:34 1015 29.97 844 24.92 2.9 37.2 96 2.3 36.2 3.24 0.128
07:35 1015 29.97 844 24.92 2.9 37.2 96 2.3 36.2 3.28 0.129
07:36 1015 29.97 844 24.92 2.9 37.3 96 2.3 36.2 3.308 0.13
07:37 1015 29.97 844 24.92 2.9 37.3 96 2.4 36.2 3.308 0.13
07:38 1015 29.97 844 24.92 2.9 37.3 96 2.3 36.2 3.28 0.129
07:39 1015 29.97 844 24.92 3 37.3 95 2.3 36.1 3.303 0.13
07:40 1015 29.97 844 24.92 3 37.3 95 2.3 36.1 3.32 0.131
07:41 1015 29.97 844 24.92 3 37.4 95 2.3 36.2 3.359 0.132
07:42 1015 29.97 844 24.92 3 37.4 95 2.3 36.2 3.354 0.132
07:43 1015 29.97 844 24.92 3 37.4 95 2.3 36.1 3.354 0.132
07:44 1015 29.97 844 24.92 3 37.4 95 2.3 36.1 3.342 0.132
07:45 1015 29.97 844 24.92 3 37.5 95 2.3 36.2 3.399 0.134
07:46 1015 29.97 844 24.92 3.1 37.5 95 2.4 36.2 3.41 0.134
07:47 1015 29.97 844 24.92 3 37.4 95 2.3 36.1 3.405 0.134
07:48 1015 29.97 844 24.92 3 37.4 95 2.3 36.1 3.41 0.134
07:49 1015 29.97 844 24.92 3.1 37.5 95 2.3 36.2 3.382 0.133
07:50 1015 29.97 844 24.92 3 37.5 95 2.3 36.1 3.405 0.134
07:51 1015 29.97 844 24.92 3.1 37.5 95 2.3 36.1 3.422 0.135
07:52 1015 29.97 844 24.92 3.1 37.5 95 2.3 36.1 3.382 0.133
07:53 1015 29.97 844 24.92 3.1 37.5 95 2.3 36.2 3.433 0.135
07:54 1015 29.97 844 24.92 3.1 37.5 95 2.3 36.1 3.444 0.136
07:55 1015 29.97 844 24.92 3.1 37.6 95 2.3 36.2 3.461 0.136
07:56 1015 29.97 844 24.92 3.1 37.6 94 2.3 36.1 3.416 0.134
07:57 1015 29.97 844 24.92 3.1 37.6 95 2.3 36.1 3.456 0.136
07:58 1015 29.97 844 24.92 3.1 37.5 94 2.3 36.1 3.427 0.135
07:59 1015 29.97 844 24.92 3.1 37.6 94 2.3 36.1 3.461 0.136
08:00 1015 29.97 844 24.92 3.1 37.6 94 2.3 36.1 3.422 0.135
08:01 1015 29.97 844 24.92 3.1 37.6 95 2.3 36.1 3.41 0.134
08:02 1015 29.97 844 24.92 3.1 37.6 95 2.3 36.2 3.439 0.135
08:03 1015 29.97 844 24.92 3.1 37.5 94 2.3 36.1 3.456 0.136
08:04 1015 29.97 844 24.92 3.1 37.5 94 2.3 36.1 3.399 0.134
08:05 1015 29.97 844 24.92 3.1 37.6 95 2.3 36.2 3.45 0.136
08:06 1015 29.97 844 24.92 3.1 37.6 95 2.3 36.2 3.433 0.135
08:07 1015 29.97 844 24.92 3.1 37.7 95 2.4 36.3 3.444 0.136
08:08 1015 29.97 844 24.92 3.1 37.6 95 2.3 36.2 3.444 0.136
08:09 1015 29.97 844 24.92 3.1 37.6 95 2.3 36.2 3.41 0.134
08:10 1015 29.97 844 24.92 3.1 37.6 95 2.4 36.3 3.456 0.136
08:11 1015 29.97 844 24.92 3.1 37.6 95 2.4 36.3 3.456 0.136
08:12 1015 29.97 844 24.92 3.1 37.6 95 2.4 36.2 3.456 0.136
08:13 1015 29.97 844 24.92 3.1 37.6 95 2.4 36.3 3.427 0.135
08:14 1015 29.97 844 24.92 3.1 37.6 95 2.4 36.3 3.422 0.135
08:15 1015 29.97 844 24.92 3.1 37.7 95 2.4 36.4 3.467 0.136
08:16 1015 29.97 844 24.92 3.1 37.6 95 2.4 36.4 3.422 0.135
08:17 1015 29.97 844 24.92 3.1 37.6 95 2.4 36.4 3.473 0.137
08:18 1015 29.97 844 24.92 3.1 37.6 95 2.4 36.4 3.473 0.137
08:19 1015 29.97 844 24.92 3.1 37.6 96 2.5 36.5 3.484 0.137
08:20 1015 29.97 844 24.92 3.1 37.6 96 2.5 36.5 3.49 0.137
08:21 1015 29.97 844 24.92 3.1 37.6 96 2.5 36.5 3.495 0.138
08:22 1015 29.97 844 24.92 3.1 37.7 96 2.5 36.6 3.484 0.137
08:23 1015 29.97 844 24.92 3.1 37.6 96 2.5 36.5 3.444 0.136
08:24 1015 29.97 844 24.92 3.1 37.6 96 2.5 36.5 3.507 0.138
08:25 1015 29.97 844 24.92 3.2 37.7 96 2.5 36.5 3.478 0.137
08:26 1015 29.97 844 24.92 3.1 37.7 95 2.5 36.5 3.501 0.138
08:27 1015 29.97 844 24.92 3.2 37.7 96 2.5 36.6 3.49 0.137
08:28 1015 29.97 844 24.92 3.2 37.7 96 2.5 36.5 3.512 0.138
08:29 1015 29.97 844 24.92 3.2 37.8 95 2.5 36.6 3.529 0.139
08:30 1015 29.97 844 24.92 3.2 37.8 96 2.6 36.7 3.597 0.142
08:31 1015 29.97 844 24.92 3.2 37.7 96 2.5 36.6 3.591 0.141
08:32 1015 29.97 844 24.92 3.2 37.8 95 2.5 36.5 3.58 0.141
08:33 1015 29.97 845 24.95 3.2 37.8 95 2.5 36.5 3.586 0.141
08:34 1015 29.97 845 24.95 3.3 37.9 95 2.6 36.7 3.625 0.143
08:35 1015 29.97 845 24.95 3.3 37.9 95 2.6 36.6 3.665 0.144
08:36 1015 29.97 845 24.95 3.3 37.9 95 2.6 36.7 3.654 0.144
08:37 1015 29.97 845 24.95 3.3 37.9 96 2.7 36.8 3.688 0.145
08:38 1015 29.97 845 24.95 3.3 37.9 96 2.6 36.8 3.654 0.144
08:39 1015 29.97 845 24.95 3.3 37.9 95 2.6 36.7 3.648 0.144
08:40 1015 29.97 845 24.95 3.3 37.9 96 2.7 36.8 3.676 0.145
08:41 1015 29.97 845 24.95 3.3 38 96 2.7 36.9 3.688 0.145
08:42 1015 29.97 845 24.95 3.3 37.9 95 2.6 36.7 3.682 0.145
08:43 1015 29.97 845 24.95 3.3 37.9 95 2.6 36.8 3.699 0.146
08:44 1015 29.97 845 24.95 3.3 37.9 95 2.6 36.7 3.676 0.145
08:45 1015 29.97 845 24.95 3.3 37.9 95 2.5 36.6 3.614 0.142
08:46 1015 29.97 845 24.95 3.3 38 95 2.6 36.7 3.665 0.144
08:47 1015 29.97 845 24.95 3.3 37.9 95 2.5 36.6 3.693 0.145
08:48 1015 29.97 845 24.95 3.3 37.9 95 2.6 36.6 3.654 0.144
08:49 1015 29.97 845 24.95 3.4 38 95 2.6 36.7 3.699 0.146
08:50 1015 29.97 845 24.95 3.4 38.1 95 2.6 36.7 3.688 0.145
08:51 1015 29.97 845 24.95 3.3 38 94 2.5 36.5 3.699 0.146
08:52 1015 29.97 845 24.95 3.3 38 95 2.5 36.6 3.722 0.147
08:53 1015 29.97 845 24.95 3.4 38.1 95 2.6 36.7 3.699 0.146
08:54 1015 29.97 845 24.95 3.4 38.1 94 2.5 36.6 3.733 0.147
08:55 1015 29.97 845 24.95 3.4 38.1 94 2.6 36.6 3.693 0.145
08:56 1015 29.97 845 24.95 3.4 38.1 94 2.5 36.6 3.722 0.147
08:57 1015 29.97 845 24.95 3.4 38.1 94 2.5 36.5 3.744 0.147
08:58 1015 29.97 845 24.95 3.4 38.1 94 2.6 36.6 3.756 0.148
08:59 1015 29.97 845 24.95 3.4 38.2 94 2.5 36.6 3.778 0.149
09:00 1015 29.97 845 24.95 3.4 38.2 94 2.5 36.5 3.767 0.148
09:01 1015 29.97 845 24.95 3.4 38.1 93 2.5 36.4 3.739 0.147
09:02 1015 29.97 845 24.95 3.4 38.2 93 2.4 36.4 3.756 0.148
09:03 1015 29.97 845 24.95 3.4 38.2 93 2.4 36.3 3.744 0.147
09:04 1015 29.97 845 24.95 3.4 38.2 93 2.5 36.4 3.784 0.149
09:05 1015 29.97 845 24.95 3.4 38.2 93 2.4 36.3 3.79 0.149
09:06 1015 29.97 845 24.95 3.4 38.2 93 2.4 36.3 3.784 0.149
09:07 1015 29.97 845 24.95 3.4 38.2 93 2.3 36.2 3.761 0.148
09:08 1015 29.97 845 24.95 3.5 38.3 93 2.4 36.4 3.852 0.152
09:09 1015 29.97 845 24.95 3.5 38.3 93 2.5 36.6 3.875 0.153
09:10 1015 29.97 845 24.95 3.5 38.3 93 2.5 36.4 3.863 0.152
09:11 1015 29.97 845 24.95 3.5 38.3 93 2.4 36.4 3.909 0.154
09:12 1015 29.97 845 24.95 3.5 38.3 93 2.5 36.5 3.852 0.152
09:13 1015 29.97 845 24.95 3.5 38.3 93 2.5 36.5 3.801 0.15
09:14 1015 29.97 845 24.95 3.5 38.3 93 2.6 36.6 3.875 0.153
09:15 1015 29.97 845 24.95 3.5 38.3 92 2.4 36.3 3.852 0.152
09:16 1015 29.97 845 24.95 3.5 38.3 93 2.4 36.4 3.852 0.152
09:17 1015 29.97 845 24.95 3.5 38.3 93 2.4 36.4 3.892 0.153
09:18 1015 29.97 845 24.95 3.5 38.4 92 2.4 36.3 3.869 0.152
09:19 1016 30 845 24.95 3.5 38.4 92 2.3 36.2 3.925 0.155
09:20 1015 29.97 845 24.95 3.5 38.3 91 2.2 36 3.875 0.153
09:21 1015 29.97 845 24.95 3.6 38.4 92 2.4 36.4 3.903 0.154
09:22 1016 30 845 24.95 3.6 38.5 93 2.5 36.5 3.937 0.155
09:23 1016 30 845 24.95 3.6 38.4 92 2.4 36.3 3.948 0.155
09:24 1016 30 845 24.95 3.6 38.5 92 2.3 36.2 3.903 0.154
09:25 1016 30 845 24.95 3.6 38.4 92 2.4 36.3 3.903 0.154
09:26 1016 30 845 24.95 3.6 38.5 92 2.4 36.3 3.914 0.154
09:27 1016 30 845 24.95 3.5 38.4 92 2.4 36.3 3.965 0.156
09:28 1016 30 845 24.95 3.6 38.5 93 2.5 36.6 3.942 0.155
09:29 1016 30 845 24.95 3.6 38.5 92 2.4 36.4 3.965 0.156
09:30 1016 30 845 24.95 3.6 38.5 92 2.3 36.2 3.914 0.154
09:31 1016 30 845 24.95 3.6 38.4 92 2.4 36.3 3.931 0.155
09:32 1016 30 845 24.95 3.6 38.5 92 2.4 36.3 3.965 0.156
09:33 1016 30 845 24.95 3.6 38.5 93 2.5 36.5 3.965 0.156
09:34 1016 30 845 24.95 3.6 38.5 92 2.4 36.3 3.988 0.157
09:35 1016 30 845 24.95 3.6 38.5 92 2.5 36.5 3.971 0.156
09:36 1016 30 845 24.95 3.6 38.5 91 2.4 36.3 4.01 0.158
09:37 1016 30 845 24.95 3.7 38.6 92 2.4 36.4 4.016 0.158
09:38 1016 30 845 24.95 3.6 38.6 91 2.3 36.1 4.005 0.158
09:39 1016 30 845 24.95 3.7 38.6 92 2.5 36.4 4.005 0.158
09:40 1016 30 845 24.95 3.7 38.6 92 2.4 36.4 4.05 0.159
09:41 1016 30 845 24.95 3.7 38.6 92 2.5 36.5 4.027 0.159
09:42 1016 30 845 24.95 3.7 38.7 92 2.5 36.5 4.101 0.161
09:43 1016 30 845 24.95 3.7 38.7 92 2.6 36.6 4.09 0.161
09:44 1016 30 845 24.95 3.8 38.8 93 2.7 36.8 4.158 0.164
09:45 1016 30 845 24.95 3.8 38.8 93 2.7 36.9 4.209 0.166
09:46 1016 30 845 24.95 3.8 38.9 91 2.5 36.5 4.192 0.165
09:47 1016 30 845 24.95 3.8 38.8 91 2.5 36.4 4.175 0.164
09:48 1016 30 845 24.95 3.8 38.8 91 2.5 36.4 4.129 0.163
09:49 1016 30 845 24.95 3.8 38.9 91 2.5 36.4 4.163 0.164
09:50 1016 30 845 24.95 3.8 38.8 90 2.4 36.3 4.146 0.163
09:51 1016 30 845 24.95 3.8 38.9 91 2.5 36.6 4.18 0.165
09:52 1016 30 845 24.95 3.8 38.9 92 2.6 36.7 4.214 0.166
09:53 1016 30 845 24.95 3.8 38.9 91 2.5 36.5 4.243 0.167
09:54 1016 30 845 24.95 3.8 38.9 92 2.6 36.6 4.192 0.165
09:55 1016 30 845 24.95 3.8 38.9 92 2.6 36.6 4.22 0.166
09:56 1016 30 845 24.95 3.8 38.9 91 2.5 36.6 4.226 0.166
09:57 1016 30 845 24.95 3.8 38.9 91 2.5 36.5 4.231 0.167
09:58 1016 30 845 24.95 3.9 39 92 2.6 36.7 4.248 0.167
09:59 1016 30 845 24.95 3.9 39 91 2.5 36.5 4.237 0.167
10:00 1016 30 845 24.95 3.9 39 90 2.4 36.4 4.231 0.167
10:01 1016 30 845 24.95 3.8 38.9 90 2.3 36.1 4.237 0.167
10:02 1016 30 845 24.95 3.9 39 91 2.5 36.6 4.26 0.168
10:03 1016 30 845 24.95 3.9 39 91 2.6 36.6 4.288 0.169
10:04 1016 30 845 24.95 3.9 39.1 91 2.5 36.5 4.299 0.169
10:05 1016 30 845 24.95 4 39.1 91 2.7 36.8 4.288 0.169
10:06 1016 30 845 24.95 4 39.2 90 2.5 36.5 4.344 0.171
10:07 1016 30 845 24.95 4 39.1 90 2.4 36.4 4.333 0.171
10:08 1016 30 845 24.95 4 39.2 90 2.5 36.6 4.35 0.171
10:09 1016 30 845 24.95 4 39.2 90 2.5 36.4 4.378 0.172
10:10 1016 30 845 24.95 4 39.3 90 2.6 36.7 4.424 0.174
10:11 1016 30 845 24.95 4.1 39.3 89 2.5 36.4 4.418 0.174
10:12 1016 30 845 24.95 4.1 39.3 90 2.6 36.7 4.401 0.173
10:13 1016 30 845 24.95 4.1 39.3 89 2.4 36.3 4.418 0.174
10:14 1016 30 845 24.95 4.1 39.4 89 2.5 36.4 4.435 0.175
10:15 1016 30 845 24.95 4.1 39.4 90 2.6 36.7 4.475 0.176
10:16 1016 30 845 24.95 4.1 39.4 90 2.6 36.7 4.509 0.178
10:17 1016 30 845 24.95 4.2 39.5 90 2.7 36.8 4.503 0.177
10:18 1016 30 845 24.95 4.2 39.6 90 2.7 36.9 4.577 0.18
10:19 1016 30 845 24.95 4.2 39.6 90 2.7 36.8 4.554 0.179
10:20 1016 30 845 24.95 4.3 39.7 91 2.9 37.2 4.582 0.18
10:21 1016 30 845 24.95 4.3 39.7 89 2.6 36.7 4.633 0.182
10:22 1016 30 845 24.95 4.3 39.8 90 2.8 37 4.644 0.183
10:23 1016 30 845 24.95 4.4 39.9 89 2.7 36.8 4.678 0.184
10:24 1016 30 845 24.95 4.4 39.9 89 2.7 36.8 4.695 0.185
10:25 1016 30 845 24.95 4.4 40 87 2.5 36.5 4.729 0.186
10:26 1016 30 845 24.95 4.4 39.9 88 2.5 36.6 4.763 0.188
10:27 1016 30 845 24.95 4.4 40 87 2.4 36.4 4.78 0.188
10:28 1016 30 845 24.95 4.4 40 86 2.3 36.2 4.769 0.188
10:29 1016 30 845 24.95 4.4 39.9 88 2.6 36.6 4.775 0.188
10:30 1016 30 845 24.95 4.4 40 87 2.4 36.4 4.775 0.188
10:31 1016 30 845 24.95 4.4 39.9 87 2.5 36.5 4.78 0.188
10:32 1016 30 845 24.95 4.4 39.9 86 2.3 36.1 4.729 0.186
10:33 1016 30 845 24.95 4.4 39.9 87 2.5 36.5 4.746 0.187
10:34 1016 30 845 24.95 4.4 40 87 2.5 36.5 4.775 0.188
10:35 1016 30 845 24.95 4.4 39.9 87 2.5 36.5 4.758 0.187
10:36 1016 30 845 24.95 4.4 39.9 86 2.3 36.2 4.769 0.188
10:37 1016 30 845 24.95 4.4 39.9 87 2.4 36.4 4.786 0.188
10:38 1016 30 845 24.95 4.4 39.9 87 2.4 36.3 4.752 0.187
10:39 1016 30 845 24.95 4.4 39.9 86 2.3 36.1 4.758 0.187
10:40 1016 30 845 24.95 4.4 39.9 86 2.2 36 4.758 0.187
10:41 1016 30 845 24.95 4.4 40 87 2.4 36.4 4.758 0.187
10:42 1016 30 845 24.95 4.4 40 86 2.3 36.2 4.814 0.19
10:43 1016 30 845 24.95 4.5 40 86 2.3 36.1 4.792 0.189
10:44 1016 30 845 24.95 4.5 40.1 87 2.5 36.4 4.865 0.192
10:45 1016 30 845 24.95 4.5 40.1 86 2.3 36.2 4.837 0.19
10:46 1016 30 845 24.95 4.6 40.2 86 2.5 36.4 4.854 0.191
10:47 1016 30 845 24.95 4.6 40.2 86 2.5 36.4 4.922 0.194
10:48 1016 30 845 24.95 4.6 40.3 86 2.5 36.4 4.956 0.195
10:49 1016 30 845 24.95 4.7 40.4 85 2.4 36.4 4.95 0.195
10:50 1016 30 845 24.95 4.7 40.5 85 2.4 36.4 4.995 0.197
10:51 1016 30 845 24.95 4.7 40.4 83 2.1 35.7 5.012 0.197
10:52 1016 30 845 24.95 4.7 40.5 85 2.4 36.2 5.052 0.199
10:53 1016 30 845 24.95 4.7 40.5 84 2.2 35.9 5.103 0.201
10:54 1016 30 845 24.95 4.8 40.6 83 2.2 35.9 5.109 0.201
10:55 1016 30 845 24.95 4.8 40.7 83 2.2 36 5.052 0.199
10:56 1016 30 845 24.95 4.8 40.7 85 2.5 36.4 5.13 0.202
10:57 1016 30 845 24.95 4.9 40.8 84 2.3 36.2 5.215 0.205
10:58 1016 30 845 24.95 4.9 40.8 82 2.1 35.8 5.243 0.206
10:59 1016 30 845 24.95 4.9 40.9 85 2.6 36.6 5.31 0.209
11:00 1016 30 845 24.95 5 41 82 2.2 36 5.366 0.211
11:01 1016 30 845 24.95 5.1 41.1 82 2.2 36 5.44 0.214
11:02 1016 30 845 24.95 5.2 41.3 80 2.1 35.7 5.501 0.217
11:03 1016 30 845 24.95 5.2 41.3 80 2 35.7 5.518 0.217
11:04 1016 30 845 24.95 5.2 41.3 81 2.2 36 5.552 0.219
11:05 1016 30 845 24.95 5.3 41.5 81 2.3 36.2 5.608 0.221
11:06 1016 30 845 24.95 5.3 41.6 79 2 35.6 5.648 0.222
11:07 1016 30 845 24.95 5.3 41.6 78 1.7 35.1 5.659 0.223
11:08 1016 30 845 24.95 5.3 41.6 81 2.4 36.3 5.664 0.223
11:09 1016 30 845 24.95 5.4 41.7 84 2.9 37.2 5.777 0.227
11:10 1016 30 845 24.95 5.5 41.9 78 1.9 35.4 5.794 0.228
11:11 1016 30 845 24.95 5.5 41.8 80 2.3 36.1 5.85 0.23
11:12 1016 30 845 24.95 5.4 41.8 76 1.6 34.8 5.754 0.227
11:13 1016 30 845 24.95 5.5 41.8 84 3 37.5 5.81 0.229
11:14 1016 30 845 24.95 5.6 42.1 84 3.1 37.7 6.014 0.237
11:15 1016 30 845 24.95 5.7 42.2 79 2.4 36.3 6.076 0.239
11:16 1016 30 845 24.95 5.7 42.2 79 2.3 36.2 6.008 0.237
11:17 1016 30 845 24.95 5.6 42 78 2 35.7 5.923 0.233
11:18 1016 30 845 24.95 5.6 42.1 77 1.9 35.5 5.917 0.233
11:19 1016 30 845 24.95 5.6 42 78 2.1 35.8 5.923 0.233
11:20 1016 30 845 24.95 5.6 42.1 77 1.9 35.5 5.957 0.235
11:21 1016 30 845 24.95 5.6 42.1 81 2.6 36.7 6.025 0.237
11:22 1016 30 845 24.95 5.8 42.4 79 2.3 36.2 6.172 0.243
11:23 1016 30 845 24.95 5.8 42.4 77 2.1 35.8 6.109 0.241
11:24 1016 30 845 24.95 5.8 42.4 74 1.5 34.7 6.16 0.243
11:25 1016 30 845 24.95 5.7 42.3 77 2.1 35.7 6.126 0.241
11:26 1016 30 845 24.95 5.7 42.3 74 1.5 34.8 6.113 0.241
11:27 1016 30 845 24.95 5.7 42.2 76 1.9 35.3 6.079 0.239
11:28 1016 30 845 24.95 5.7 42.3 77 2 35.5 6.158 0.242
11:29 1016 30 845 24.95 5.7 42.3 78 2.2 35.9 6.123 0.241
11:30 1016 30 845 24.95 5.7 42.3 76 1.9 35.4 6.152 0.242
11:31 1016 30 845 24.95 5.7 42.3 77 2.1 35.7 6.123 0.241
11:32 1016 30 845 24.95 5.7 42.3 75 1.7 35.1 6.105 0.24
11:33 1016 30 845 24.95 5.7 42.3 76 1.9 35.4 6.133 0.241
11:34 1016 30 845 24.95 5.7 42.3 74 1.5 34.8 6.133 0.241
11:35 1016 30 845 24.95 5.8 42.4 77 2.1 35.7 6.155 0.242
11:36 1016 30 845 24.95 5.8 42.5 78 2.3 36.1 6.251 0.246
11:37 1016 30 845 24.95 5.8 42.5 75 1.7 35.1 6.251 0.246
11:38 1016 30 845 24.95 5.9 42.5 77 2.2 36 6.205 0.244
11:39 1016 30 845 24.95 5.8 42.5 77 2.1 35.8 6.285 0.247
11:40 1016 30 845 24.95 5.9 42.6 77 2.2 35.9 6.29 0.248
11:41 1016 30 845 24.95 5.9 42.6 74 1.6 34.9 6.25 0.246
11:42 1016 30 845 24.95 5.9 42.6 75 1.7 35.1 6.267 0.247
11:43 1016 30 845 24.95 5.8 42.5 72 1.2 34.1 6.278 0.247
11:44 1016 30 845 24.95 5.9 42.6 76 1.9 35.5 6.284 0.247
11:45 1016 30 845 24.95 5.9 42.6 74 1.6 34.8 6.329 0.249
11:46 1016 30 845 24.95 5.9 42.7 75 1.8 35.3 6.351 0.25
11:47 1016 30 845 24.95 6 42.8 75 2 35.5 6.413 0.252
11:48 1016 30 845 24.95 6 42.9 73 1.6 34.9 6.408 0.252
11:49 1016 30 845 24.95 6 42.9 70 1.1 33.9 6.441 0.254
11:50 1016 30 845 24.95 6 42.8 69 0.9 33.6 6.413 0.252
11:51 1016 30 845 24.95 6 42.8 74 1.7 35 6.374 0.251
11:52 1016 30 845 24.95 6.1 42.9 71 1.2 34.2 6.475 0.255
11:53 1016 30 845 24.95 6.1 43 72 1.4 34.5 6.52 0.257
11:54 1016 30 845 24.95 6.1 43 66 0.3 32.6 6.486 0.255
11:55 1016 30 845 24.95 6.1 43 72 1.4 34.6 6.481 0.255
11:56 1016 30 845 24.95 6.2 43.1 71 1.2 34.2 6.599 0.26
11:57 1016 30 845 24.95 6.2 43.2 75 2.1 35.9 6.673 0.263
11:58 1016 30 845 24.95 6.3 43.4 70 1.2 34.2 6.73 0.265
11:59 1016 30 845 24.95 6.3 43.3 69 1.2 34.1 6.701 0.264
12:00 1016 30 845 24.95 6.3 43.3 71 1.4 34.5 6.712 0.264
12:01 1016 30 845 24.95 6.3 43.3 67 0.7 33.3 6.69 0.263
12:02 1016 30 845 24.95 6.2 43.2 68 0.8 33.5 6.69 0.263
12:03 1016 30 845 24.95 6.2 43.2 69 1 33.8 6.639 0.261
12:04 1016 30 845 24.95 6.2 43.2 69 1 33.8 6.673 0.263
12:05 1016 30 845 24.95 6.2 43.2 72 1.6 34.9 6.639 0.261
12:06 1016 30 845 24.95 6.3 43.3 73 1.9 35.4 6.701 0.264
12:07 1016 30 845 24.95 6.3 43.4 71 1.5 34.6 6.803 0.268
12:08 1016 30 845 24.95 6.4 43.5 68 1 33.9 6.82 0.269
12:09 1016 30 845 24.95 6.4 43.5 73 1.8 35.3 6.848 0.27
12:10 1016 30 845 24.95 6.4 43.5 72 1.8 35.2 6.854 0.27
12:11 1016 30 845 24.95 6.5 43.6 68 1 33.8 6.865 0.27
12:12 1016 30 845 24.95 6.5 43.8 74 2.2 36 6.922 0.273
12:13 1016 30 845 24.95 6.6 43.9 68 1.1 34 7.03 0.277
12:14 1016 30 845 24.95 6.6 43.9 71 1.8 35.2 7.01 0.276
12:15 1016 30 845 24.95 6.6 43.9 72 2 35.6 7.07 0.278
12:16 1016 30 845 24.95 6.7 44 66 0.7 33.3 7.1 0.28
12:17 1016 30 845 24.95 6.7 44.1 74 2.4 36.2 7.09 0.279
12:18 1016 30 845 24.95 6.8 44.2 70 1.7 35 7.19 0.283
12:19 1016 30 845 24.95 6.8 44.2 66 0.9 33.6 7.16 0.282
12:20 1016 30 845 24.95 6.7 44.1 64 0.5 32.9 7.11 0.28
12:21 1016 30 845 24.95 6.7 44.1 64 0.3 32.6 7.11 0.28
12:22 1016 30 845 24.95 6.8 44.2 69 1.6 34.8 7.17 0.282
12:23 1016 30 845 24.95 6.8 44.2 67 1.1 34 7.24 0.285
12:24 1016 30 845 24.95 6.8 44.3 63 0.2 32.4 7.24 0.285
12:25 1016 30 845 24.95 6.8 44.3 66 0.8 33.5 7.29 0.287
12:26 1016 30 845 24.95 6.9 44.4 68 1.4 34.6 7.33 0.289
12:27 1016 30 845 24.95 6.9 44.4 65 0.7 33.3 7.32 0.288
12:28 1016 30 845 24.95 6.9 44.5 66 1 33.9 7.33 0.289
12:29 1016 30 845 24.95 7 44.6 68 1.5 34.6 7.39 0.291
12:30 1016 30 845 24.95 7 44.6 62 0.2 32.4 7.42 0.292
12:31 1016 30 845 24.95 6.9 44.5 61 -0.1 31.8 7.41 0.292
12:32 1016 30 845 24.95 7 44.6 71 2.1 35.7 7.43 0.293
12:33 1016 30 845 24.95 7.1 44.7 60 -0.1 31.8 7.56 0.298
12:34 1016 30 845 24.95 7.2 44.9 58 -0.5 31.1 7.52 0.296
12:35 1016 30 845 24.95 7.2 45 62 0.4 32.8 7.48 0.294
12:36 1016 30 845 24.95 7.2 45 65 1 33.8 7.51 0.296
12:37 1016 30 845 24.95 7.2 45 63 0.6 33.1 7.56 0.298
12:38 1016 30 845 24.95 7.3 45.1 63 0.8 33.4 7.59 0.299
12:39 1016 30 845 24.95 7.3 45.2 65 1.1 34 7.68 0.302
12:40 1016 30 845 24.95 7.4 45.3 64 1.1 33.9 7.72 0.304
12:41 1016 30 845 24.95 7.4 45.3 64 1.1 33.9 7.68 0.302
12:42 1016 30 845 24.95 7.4 45.3 65 1.2 34.1 7.71 0.304
12:43 1016 30 845 24.95 7.4 45.3 58 -0.2 31.6 7.74 0.305
12:44 1016 30 845 24.95 7.4 45.3 60 0.2 32.4 7.78 0.306
12:45 1016 30 845 24.95 7.3 45.2 62 0.6 33 7.74 0.305
12:46 1016 30 845 24.95 7.3 45.2 59 -0 31.9 7.74 0.305
12:47 1016 30 845 24.95 7.3 45.2 61 0.2 32.4 7.7 0.303
12:48 1016 30 845 24.95 7.3 45.1 65 1.1 34 7.69 0.303
12:49 1016 30 845 24.95 7.3 45.2 59 -0.3 31.5 7.73 0.304
12:50 1016 30 845 24.95 7.3 45.2 60 0.2 32.3 7.71 0.304
12:51 1016 30 845 24.95 7.3 45.2 61 0.3 32.6 7.75 0.305
12:52 1016 30 845 24.95 7.4 45.3 59 0 32 7.75 0.305
12:53 1016 30 845 24.95 7.4 45.3 59 -0 31.9 7.76 0.306
12:54 1016 30 845 24.95 7.4 45.3 58 -0.2 31.7 7.76 0.306
12:55 1016 30 845 24.95 7.4 45.4 59 -0.1 31.8 7.73 0.304
12:56 1016 30 845 24.95 7.4 45.3 54 -1.2 29.9 7.68 0.302
12:57 1016 30 845 24.95 7.3 45.2 61 0.2 32.4 7.67 0.302
12:58 1016 30 845 24.95 7.4 45.2 61 0.4 32.7 7.71 0.304
12:59 1016 30 845 24.95 7.4 45.2 62 0.6 33 7.72 0.304
13:00 1016 30 845 24.95 7.3 45.2 61 0.3 32.5 7.75 0.305
13:01 1016 30 845 24.95 7.4 45.3 60 0.1 32.2 7.79 0.307
13:02 1016 30 845 24.95 7.4 45.3 59 -0 31.9 7.74 0.305
13:03 1016 30 845 24.95 7.3 45.1 63 0.7 33.3 7.69 0.303
13:04 1016 30 845 24.95 7.3 45.2 61 0.4 32.7 7.72 0.304
13:05 1016 30 845 24.95 7.3 45.1 60 0.1 32.2 7.72 0.304
13:06 1016 30 845 24.95 7.3 45.1 57 -0.7 30.8 7.65 0.301
13:07 1016 30 845 24.95 7.2 45 62 0.4 32.8 7.58 0.298
13:08 1016 30 845 24.95 7.2 45 56 -0.9 30.5 7.58 0.298
13:09 1016 30 845 24.95 7.2 45 61 0.3 32.6 7.6 0.299
13:10 1016 30 845 24.95 7.3 45.2 62 0.7 33.2 7.72 0.304
13:11 1016 30 845 24.95 7.4 45.3 60 0.2 32.3 7.81 0.307
13:12 1016 30 845 24.95 7.5 45.5 62 0.6 33.1 7.86 0.309
13:13 1016 30 845 24.95 7.5 45.4 58 -0.3 31.5 7.87 0.31
13:14 1016 30 845 24.95 7.4 45.3 54 -1.4 29.5 7.78 0.306
13:15 1016 30 845 24.95 7.4 45.2 61 0.3 32.5 7.74 0.305
13:16 1016 30 845 24.95 7.4 45.3 58 -0.3 31.5 7.82 0.308
13:17 1016 30 845 24.95 7.5 45.5 59 0 32 7.88 0.31
13:18 1016 30 845 24.95 7.6 45.7 64 1.1 34.1 7.95 0.313
13:19 1016 30 845 24.95 7.7 45.8 60 0.4 32.7 8.11 0.319
13:20 1016 30 845 24.95 7.8 46 57 -0.2 31.6 8.18 0.322
13:21 1016 30 845 24.95 7.7 45.9 54 -1 30.3 8.09 0.319
13:22 1016 30 845 24.95 7.6 45.6 55 -0.8 30.6 7.98 0.314
13:23 1016 30 845 24.95 7.5 45.6 56 -0.5 31 7.93 0.312
13:24 1016 30 845 24.95 7.5 45.5 61 0.4 32.7 7.93 0.312
13:25 1016 30 845 24.95 7.6 45.6 60 0.4 32.7 8.06 0.317
13:26 1016 30 845 24.95 7.7 45.8 57 -0.4 31.3 8.11 0.319
13:27 1016 30 845 24.95 7.7 45.8 60 0.5 32.9 8.11 0.319
13:28 1016 30 845 24.95 7.7 45.9 58 0 32.1 8.19 0.322
13:29 1016 30 845 24.95 7.7 45.9 57 -0.1 31.8 8.14 0.32
13:30 1016 30 845 24.95 7.7 45.9 57 -0.3 31.5 8.09 0.319
13:31 1016 30 845 24.95 7.7 45.9 55 -0.7 30.7 8.11 0.319
13:32 1016 30 845 24.95 7.8 46 54 -0.8 30.5 8.15 0.321
13:33 1016 30 845 24.95 7.9 46.1 57 -0.2 31.6 8.21 0.323
13:34 1016 30 845 24.95 7.9 46.3 58 0.1 32.3 8.29 0.326
13:35 1016 30 845 24.95 7.9 46.3 57 0.1 32.2 8.34 0.328
13:36 1016 30 845 24.95 8 46.3 56 -0.3 31.5 8.38 0.33
13:37 1016 30 845 24.95 8.1 46.5 58 0.3 32.5 8.42 0.331
13:38 1016 30 845 24.95 8.2 46.7 60 1 33.8 8.46 0.333
13:39 1016 30 845 24.95 8.2 46.8 54 -0.4 31.2 8.59 0.338
13:40 1016 30 845 24.95 8.2 46.7 53 -0.7 30.7 8.52 0.335
13:41 1016 30 845 24.95 8.2 46.7 61 1 33.8 8.5 0.335
13:42 1016 30 845 24.95 8.2 46.7 57 0.3 32.5 8.57 0.337
13:43 1016 30 845 24.95 8.3 46.9 56 -0.1 31.9 8.64 0.34
13:44 1016 30 845 24.95 8.3 46.9 57 0.3 32.6 8.67 0.341
13:45 1016 30 845 24.95 8.3 47 56 0.1 32.3 8.71 0.343
13:46 1016 30 845 24.95 8.3 46.9 60 1 33.8 8.64 0.34
13:47 1016 30 845 24.95 8.3 46.9 59 0.7 33.3 8.65 0.341
13:48 1016 30 845 24.95 8.3 46.9 57 0.2 32.4 8.63 0.34
13:49 1016 30 845 24.95 8.2 46.8 54 -0.6 30.9 8.64 0.34
13:50 1016 30 845 24.95 8.2 46.8 52 -1.1 30.1 8.58 0.338
13:51 1016 30 845 24.95 8.2 46.7 54 -0.6 31 8.55 0.337
13:52 1016 30 845 24.95 8.2 46.7 51 -1.2 29.8 8.55 0.337
13:53 1016 30 845 24.95 8.2 46.8 57 0.2 32.4 8.58 0.338
13:54 1016 30 845 24.95 8.3 46.9 60 0.9 33.6 8.68 0.342
13:55 1016 30 845 24.95 8.3 47 54 -0.3 31.4 8.72 0.343
13:56 1016 30 845 24.95 8.2 46.8 56 -0 32 8.61 0.339
13:57 1016 30 845 24.95 8.2 46.7 56 0 32.1 8.59 0.338
13:58 1016 30 845 24.95 8.1 46.6 54 -0.7 30.8 8.57 0.337
13:59 1016 30 845 24.95 8.1 46.6 54 -0.5 31.1 8.53 0.336
14:00 1016 30 845 24.95 8.2 46.7 53 -0.7 30.7 8.61 0.339
14:01 1016 30 845 24.95 8.2 46.8 56 -0.1 31.7 8.54 0.336
14:02 1016 30 845 24.95 8.2 46.8 53 -0.7 30.7 8.5 0.335
14:03 1016 30 845 24.95 8.3 46.9 56 0 32.1 8.57 0.337
14:04 1016 30 845 24.95 8.4 47 51 -1.1 30.1 8.63 0.34
14:05 1016 30 845 24.95 8.4 47 52 -0.8 30.5 8.64 0.34
14:06 1016 30 845 24.95 8.4 47.1 54 -0.4 31.3 8.7 0.343
14:07 1016 30 845 24.95 8.4 47.1 51 -1.1 30 8.64 0.34
14:08 1016 30 845 24.95 8.3 47 51 -1.2 29.9 8.65 0.341
14:09 1016 30 845 24.95 8.4 47 49 -1.7 28.9 8.66 0.341
14:10 1016 30 845 24.95 8.4 47.1 51 -1.1 30 8.65 0.341
14:11 1016 30 845 24.95 8.4 47.1 55 -0.1 31.7 8.68 0.342
14:12 1016 30 845 24.95 8.4 47.1 53 -0.6 30.9 8.72 0.343
14:13 1016 30 845 24.95 8.4 47.2 51 -1.2 29.9 8.81 0.347
14:14 1016 30 845 24.95 8.5 47.2 56 0.1 32.3 8.87 0.349
14:15 1016 30 845 24.95 8.5 47.4 49 -1.5 29.3 8.98 0.354
14:16 1016 30 845 24.95 8.6 47.4 47 -2 28.4 8.99 0.354
14:17 1016 30 845 24.95 8.6 47.4 47 -2.1 28.2 8.98 0.354
14:18 1016 30 845 24.95 8.6 47.4 53 -0.6 31 8.97 0.353
14:19 1016 30 845 24.95 8.6 47.4 53 -0.5 31.2 8.99 0.354
14:20 1016 30 845 24.95 8.7 47.6 51 -0.8 30.5 9.04 0.356
14:21 1016 30 845 24.95 8.8 47.9 53 -0.3 31.5 9.16 0.361
14:22 1016 30 845 24.95 8.9 48.1 49 -1.1 29.9 9.39 0.37
14:23 1016 30 845 24.95 9 48.3 47 -1.5 29.2 9.43 0.371
14:24 1016 30 845 24.95 9 48.2 52 -0.2 31.6 9.44 0.372
14:25 1016 30 845 24.95 9 48.2 49 -1.1 30 9.34 0.368
14:26 1016 30 845 24.95 8.9 48 49 -1.1 30.1 9.36 0.369
14:27 1016 30 845 24.95 8.9 48 46 -1.9 28.5 9.35 0.368
14:28 1016 30 845 24.95 8.9 47.9 49 -1.4 29.5 9.33 0.367
14:29 1016 30 845 24.95 9 48.1 51 -0.6 30.8 9.41 0.37
14:30 1016 30 845 24.95 9.1 48.4 52 -0.2 31.6 9.54 0.376
14:31 1016 30 845 24.95 9.2 48.6 53 0.1 32.2 9.58 0.377
14:32 1016 30 845 24.95 9.3 48.7 54 0.5 33 9.5 0.374
14:33 1016 30 845 24.95 9.2 48.6 52 0 32.1 9.51 0.374
14:34 1016 30 845 24.95 9.2 48.5 55 0.7 33.2 9.54 0.376
14:35 1016 30 845 24.95 9.1 48.3 53 0.1 32.1 9.38 0.369
14:36 1016 30 845 24.95 9 48.2 49 -1.2 29.9 9.35 0.368
14:37 1016 30 845 24.95 8.9 48.1 51 -0.7 30.7 9.3 0.366
14:38 1016 30 845 24.95 8.9 48 49 -1.3 29.7 9.3 0.366
14:39 1016 30 845 24.95 8.9 48 50 -0.9 30.3 9.28 0.365
14:40 1016 30 845 24.95 8.9 48 48 -1.6 29.2 9.31 0.367
14:41 1016 30 845 24.95 9 48.1 55 0.4 32.6 9.38 0.369
14:42 1016 30 845 24.95 9.2 48.5 45 -2.2 28 9.5 0.374
14:43 1016 30 845 24.95 9.3 48.7 46 -1.8 28.8 9.6 0.378
14:44 1016 30 845 24.95 9.4 48.9 49 -0.8 30.6 9.73 0.383
14:45 1016 30 845 24.95 9.5 49.1 45 -1.7 29 9.84 0.387
14:46 1016 30 845 24.95 9.5 49.1 52 0.2 32.3 9.9 0.39
14:47 1016 30 845 24.95 9.6 49.3 45 -1.6 29.2 10 0.394
14:48 1016 30 845 24.95 9.6 49.2 47 -1.2 29.9 9.94 0.391
14:49 1016 30 845 24.95 9.4 49 47 -1.3 29.6 9.8 0.386
14:50 1016 30 845 24.95 9.3 48.7 50 -0.4 31.2 9.67 0.381
14:51 1016 30 845 24.95 9.3 48.7 51 -0.4 31.3 9.7 0.382
14:52 1015 29.97 845 24.95 9.4 49 48 -1 30.2 9.88 0.389
14:53 1015 29.97 845 24.95 9.6 49.2 54 0.7 33.3 9.96 0.392
14:54 1015 29.97 845 24.95 9.6 49.2 50 -0.3 31.5 10.02 0.394
14:55 1015 29.97 845 24.95 9.6 49.3 45 -1.8 28.8 9.98 0.393
14:56 1016 30 845 24.95 9.7 49.4 53 0.6 33.1 10.01 0.394
14:57 1015 29.97 845 24.95 9.8 49.6 46 -1.2 29.9 10.15 0.4
14:58 1016 30 845 24.95 9.9 49.8 52 0.5 32.9 10.33 0.407
14:59 1015 29.97 845 24.95 10 50 48 -0.6 31 10.48 0.413
15:00 1015 29.97 845 24.95 10 49.9 45 -1.4 29.5 10.4 0.409
15:01 1015 29.97 845 24.95 9.9 49.9 43 -2 28.4 10.28 0.405
15:02 1015 29.97 845 24.95 10 49.9 44 -1.6 29.2 10.23 0.403
15:03 1015 29.97 845 24.95 10 50 46 -1.1 30 10.24 0.403
15:04 1015 29.97 845 24.95 10 50 47 -0.8 30.5 10.27 0.404
15:05 1015 29.97 845 24.95 10 49.9 45 -1.3 29.7 10.22 0.402
15:06 1015 29.97 845 24.95 9.9 49.7 46 -1.1 30.1 10.19 0.401
15:07 1015 29.97 845 24.95 9.7 49.4 43 -2.3 27.8 10.05 0.396
15:08 1015 29.97 845 24.95 9.6 49.3 47 -1.2 29.9 9.96 0.392
15:09 1015 29.97 845 24.95 9.8 49.6 46 -1.2 29.9 10.06 0.396
15:10 1015 29.97 845 24.95 9.9 49.9 42 -2.2 28 10.33 0.407
15:11 1015 29.97 845 24.95 10.1 50.1 42 -2.2 28 10.53 0.415
15:12 1015 29.97 845 24.95 10.1 50.2 49 0.1 32.1 10.58 0.417
15:13 1015 29.97 845 24.95 10.1 50.2 44 -1.6 29 10.68 0.42
15:14 1015 29.97 845 24.95 10 49.9 45 -1.4 29.5 10.54 0.415
15:15 1015 29.97 845 24.95 9.9 49.7 45 -1.4 29.5 10.42 0.41
15:16 1015 29.97 845 24.95 9.8 49.7 46 -1.2 29.8 10.4 0.409
15:17 1015 29.97 845 24.95 10 49.9 49 -0.1 31.7 10.54 0.415
15:18 1015 29.97 845 24.95 10.2 50.4 49 -0.1 31.9 10.71 0.422
15:19 1015 29.97 845 24.95 10.4 50.6 49 0.2 32.4 10.66 0.42
15:20 1015 29.97 845 24.95 10.3 50.5 47 -0.5 31.2 10.53 0.415
15:21 1015 29.97 845 24.95 10.2 50.4 46 -0.9 30.3 10.48 0.413
15:22 1015 29.97 845 24.95 10.2 50.3 42 -2 28.3 10.44 0.411
15:23 1015 29.97 845 24.95 10.1 50.1 42 -2.1 28.2 10.19 0.401
15:24 1015 29.97 845 24.95 10 49.9 43 -2.1 28.3 10.16 0.4
15:25 1015 29.97 845 24.95 10 50 48 -0.5 31 10.29 0.405
15:26 1015 29.97 845 24.95 10.1 50.1 47 -0.7 30.8 10.4 0.409
15:27 1015 29.97 845 24.95 10 50.1 45 -1.3 29.6 10.41 0.41
15:28 1015 29.97 845 24.95 10 49.9 43 -2.2 28.1 10.37 0.408
15:29 1015 29.97 845 24.95 9.7 49.5 45 -1.7 28.9 10.2 0.402
15:30 1015 29.97 845 24.95 9.7 49.4 42 -2.4 27.6 10.18 0.401
15:31 1015 29.97 845 24.95 9.7 49.4 47 -1.2 29.9 10.14 0.399
15:32 1015 29.97 845 24.95 9.8 49.6 49 -0.4 31.2 10.24 0.403
15:33 1015 29.97 845 24.95 9.8 49.7 42 -2.3 27.9 10.26 0.404
15:34 1015 29.97 845 24.95 9.7 49.5 47 -1.1 30 10.17 0.4
15:35 1015 29.97 845 24.95 9.7 49.4 44 -1.9 28.6 10.08 0.397
15:36 1015 29.97 845 24.95 9.6 49.4 45 -1.6 29.2 10.07 0.396
15:37 1015 29.97 845 24.95 9.6 49.3 46 -1.5 29.3 10.06 0.396
15:38 1015 29.97 845 24.95 9.6 49.2 43 -2.4 27.6 10.05 0.396
15:39 1015 29.97 845 24.95 9.6 49.3 44 -2 28.5 10.06 0.396
15:40 1015 29.97 845 24.95 9.7 49.5 49 -0.3 31.4 10.15 0.4
15:41 1015 29.97 845 24.95 10 49.9 49 -0.2 31.6 10.41 0.41
15:42 1015 29.97 845 24.95 10.2 50.4 45 -1.1 30 10.59 0.417
15:43 1015 29.97 845 24.95 10.3 50.6 44 -1.4 29.5 10.63 0.419
15:44 1015 29.97 845 24.95 10.5 51 43 -1.6 29.2 10.86 0.428
15:45 1015 29.97 845 24.95 10.7 51.2 40 -2.3 27.8 11.07 0.436
15:46 1015 29.97 844 24.92 10.9 51.6 43 -1 30.2 11.15 0.439
15:47 1015 29.97 845 24.95 11.1 51.9 43 -0.8 30.5 11.31 0.445
15:48 1015 29.97 844 24.92 11.2 52.2 42 -1.1 30 11.39 0.448
15:49 1015 29.97 844 24.92 11.2 52.2 47 0.5 32.8 11.58 0.456
15:50 1015 29.97 844 24.92 11.4 52.5 46 0.2 32.4 11.85 0.467
15:51 1015 29.97 844 24.92 11.5 52.6 44 -0.2 31.6 12.02 0.473
15:52 1015 29.97 844 24.92 11.5 52.7 42 -0.9 30.3 12.07 0.475
15:53 1015 29.97 844 24.92 11.5 52.7 47 0.7 33.3 12.03 0.474
15:54 1015 29.97 844 24.92 11.5 52.6 38 -2.3 27.9 11.88 0.468
15:55 1015 29.97 844 24.92 11.2 52.2 45 -0.2 31.7 11.5 0.453
15:56 1015 29.97 844 24.92 11 51.8 44 -0.7 30.8 11.28 0.444
15:57 1015 29.97 844 24.92 10.7 51.2 43 -1.3 29.7 11.09 0.437
15:58 1015 29.97 844 24.92 10.5 51 40 -2.6 27.3 10.96 0.431
15:59 1015 29.97 845 24.95 10.4 50.7 46 -0.8 30.6 10.8 0.425
16:00 1015 29.97 845 24.95 10.4 50.7 42 -1.8 28.7 10.83 0.426
16:01 1015 29.97 844 24.92 10.3 50.6 42 -2.1 28.2 10.78 0.424
16:02 1015 29.97 845 24.95 10.3 50.6 45 -1 30.1 10.81 0.426
16:03 1015 29.97 844 24.92 10.3 50.5 45 -1.1 30 10.78 0.424
16:04 1015 29.97 844 24.92 10.2 50.3 49 -0 32 10.7 0.421
16:05 1015 29.97 844 24.92 10.2 50.3 41 -2.6 27.3 10.68 0.42
16:06 1015 29.97 845 24.95 10.1 50.2 47 -0.7 30.8 10.66 0.42
16:07 1015 29.97 845 24.95 10.1 50.2 46 -1.1 30 10.63 0.419
16:08 1015 29.97 845 24.95 10.1 50.2 45 -1.2 29.8 10.64 0.419
16:09 1015 29.97 845 24.95 10.1 50.2 40 -2.7 27.2 10.65 0.419
16:10 1015 29.97 845 24.95 10.1 50.1 41 -2.6 27.3 10.61 0.418
16:11 1015 29.97 845 24.95 10.1 50.1 42 -2.3 27.9 10.58 0.417
16:12 1015 29.97 845 24.95 10.1 50.2 42 -2 28.3 10.59 0.417
16:13 1015 29.97 845 24.95 10.2 50.3 43 -1.8 28.8 10.68 0.42
16:14 1015 29.97 845 24.95 10.3 50.5 48 -0.2 31.6 10.76 0.424
16:15 1015 29.97 845 24.95 10.4 50.8 48 0 32.1 10.92 0.43
16:16 1015 29.97 845 24.95 10.6 51 49 0.4 32.7 11.09 0.437
16:17 1015 29.97 845 24.95 10.5 51 44 -1.3 29.7 11.09 0.437
16:18 1015 29.97 844 24.92 10.4 50.6 48 -0 31.9 10.92 0.43
16:19 1015 29.97 845 24.95 10.4 50.7 45 -0.9 30.4 10.91 0.43
16:20 1015 29.97 845 24.95 10.4 50.7 50 0.6 33 10.9 0.429
16:21 1015 29.97 845 24.95 10.4 50.7 49 0.1 32.2 10.89 0.429
16:22 1015 29.97 844 24.92 10.4 50.7 43 -1.6 29.2 10.87 0.428
16:23 1015 29.97 844 24.92 10.4 50.6 41 -2.2 28.1 10.81 0.426
16:24 1015 29.97 845 24.95 10.3 50.5 44 -1.3 29.6 10.71 0.422
16:25 1015 29.97 845 24.95 10.2 50.4 48 -0.1 31.8 10.65 0.419
16:26 1015 29.97 845 24.95 10.3 50.5 44 -1.4 29.4 10.75 0.423
16:27 1015 29.97 844 24.92 10.2 50.4 46 -0.8 30.5 10.72 0.422
16:28 1015 29.97 844 24.92 10.2 50.3 48 -0.3 31.5 10.66 0.42
16:29 1015 29.97 845 24.95 10.2 50.3 44 -1.6 29.2 10.63 0.419
16:30 1015 29.97 845 24.95 10.1 50.2 44 -1.4 29.4 10.58 0.417
16:31 1015 29.97 845 24.95 10.1 50.1 41 -2.6 27.3 10.57 0.416
16:32 1015 29.97 845 24.95 10 50.1 42 -2.3 27.9 10.56 0.416
16:33 1015 29.97 845 24.95 10.1 50.3 40 -2.7 27.1 10.62 0.418
16:34 1015 29.97 845 24.95 10.2 50.3 42 -2.2 28.1 10.7 0.421
16:35 1015 29.97 845 24.95 10.3 50.5 40 -2.7 27.2 10.76 0.424
16:36 1015 29.97 845 24.95 10.3 50.5 42 -2.1 28.2 10.8 0.425
16:37 1015 29.97 845 24.95 10.4 50.6 45 -1.1 30 10.85 0.427
16:38 1015 29.97 845 24.95 10.4 50.7 44 -1.3 29.6 10.89 0.429
16:39 1015 29.97 845 24.95 10.4 50.7 46 -0.6 30.9 10.9 0.429
16:40 1015 29.97 845 24.95 10.4 50.7 42 -2 28.4 10.96 0.431
16:41 1015 29.97 845 24.95 10.4 50.7 44 -1.3 29.7 10.89 0.429
16:42 1015 29.97 845 24.95 10.3 50.6 46 -0.7 30.7 10.8 0.425
16:43 1015 29.97 845 24.95 10.3 50.5 44 -1.4 29.5 10.8 0.425
16:44 1015 29.97 845 24.95 10.3 50.5 43 -1.8 28.7 10.76 0.424
16:45 1015 29.97 845 24.95 10.2 50.4 42 -2.2 28.1 10.7 0.421
16:46 1015 29.97 845 24.95 10.2 50.4 46 -0.8 30.5 10.71 0.422
16:47 1015 29.97 845 24.95 10.3 50.5 43 -1.6 29.1 10.75 0.423
16:48 1015 29.97 845 24.95 10.2 50.4 48 -0.2 31.6 10.74 0.423
16:49 1015 29.97 845 24.95 10.2 50.4 45 -1.1 30 10.76 0.424
16:50 1015 29.97 845 24.95 10.2 50.3 46 -1 30.2 10.67 0.42
16:51 1015 29.97 845 24.95 10.1 50.2 47 -0.6 30.9 10.63 0.419
16:52 1015 29.97 845 24.95 10.1 50.3 44 -1.6 29.1 10.63 0.419
16:53 1015 29.97 845 24.95 10.1 50.2 44 -1.6 29.1 10.64 0.419
16:54 1015 29.97 845 24.95 10.1 50.3 45 -1.1 30.1 10.61 0.418
16:55 1015 29.97 845 24.95 10.2 50.3 42 -2 28.4 10.67 0.42
16:56 1015 29.97 845 24.95 10.2 50.4 44 -1.5 29.3 10.7 0.421
16:57 1015 29.97 845 24.95 10.3 50.5 46 -0.9 30.4 10.7 0.421
16:58 1015 29.97 845 24.95 10.3 50.6 43 -1.8 28.8 10.67 0.42
16:59 1015 29.97 845 24.95 10.3 50.5 42 -2.2 28.1 10.58 0.417
17:00 1015 29.97 845 24.95 10.2 50.4 39 -3 26.7 10.54 0.415
17:01 1015 29.97 845 24.95 10.2 50.3 41 -2.3 27.8 10.51 0.414
17:02 1015 29.97 845 24.95 10.2 50.3 43 -1.8 28.7 10.54 0.415
17:03 1015 29.97 845 24.95 10.2 50.4 39 -3 26.7 10.58 0.417
17:04 1015 29.97 845 24.95 10.3 50.5 41 -2.4 27.7 10.63 0.419
17:05 1015 29.97 845 24.95 10.4 50.7 40 -2.6 27.4 10.76 0.424
17:06 1015 29.97 845 24.95 10.5 50.8 37 -3.4 25.8 10.77 0.424
17:07 1015 29.97 845 24.95 10.5 51 39 -2.9 26.8 10.86 0.428
17:08 1016 30 845 24.95 10.6 51.2 38 -3.2 26.2 10.92 0.43
17:09 1015 29.97 845 24.95 10.7 51.2 40 -2.4 27.7 10.96 0.431
17:10 1015 29.97 845 24.95 10.6 51.2 36 -3.7 25.4 10.92 0.43
17:11 1015 29.97 845 24.95 10.6 51.1 37 -3.3 26 10.89 0.429
17:12 1015 29.97 845 24.95 10.5 51 38 -3.3 26.1 10.88 0.428
17:13 1015 29.97 845 24.95 10.5 50.9 43 -1.4 29.5 10.97 0.432
17:14 1015 29.97 845 24.95 10.6 51 39 -2.7 27.2 10.98 0.432
17:15 1016 30 845 24.95 10.6 51 38 -3.2 26.3 10.96 0.431
17:16 1015 29.97 845 24.95 10.6 51.1 38 -3.1 26.3 10.96 0.431
17:17 1015 29.97 845 24.95 10.6 51 38 -3 26.5 10.94 0.431
17:18 1015 29.97 845 24.95 10.6 51.1 40 -2.4 27.6 10.94 0.431
17:19 1015 29.97 845 24.95 10.6 51.2 39 -2.8 27 11.04 0.435
17:20 1015 29.97 845 24.95 10.7 51.2 43 -1.4 29.5 11.01 0.433
17:21 1016 30 845 24.95 10.7 51.2 43 -1.5 29.3 11.01 0.433
17:22 1015 29.97 845 24.95 10.7 51.2 39 -2.6 27.4 11.02 0.434
17:23 1016 30 845 24.95 10.7 51.2 39 -2.8 27 11.02 0.434
17:24 1016 30 845 24.95 10.7 51.3 41 -1.9 28.6 11.07 0.436
17:25 1016 30 845 24.95 10.8 51.4 37 -3.2 26.3 11.1 0.437
17:26 1016 30 845 24.95 10.8 51.5 40 -2.1 28.2 11.16 0.439
17:27 1016 30 845 24.95 10.8 51.5 36 -3.6 25.5 11.2 0.441
17:28 1016 30 845 24.95 10.9 51.6 36 -3.6 25.5 11.29 0.444
17:29 1016 30 845 24.95 11 51.7 34 -4.2 24.4 11.33 0.446
17:30 1016 30 845 24.95 11 51.8 38 -2.7 27.2 11.31 0.445
17:31 1016 30 845 24.95 11.1 51.9 36 -3.3 26 11.35 0.447
17:32 1016 30 845 24.95 11.1 52 35 -3.7 25.3 11.41 0.449
17:33 1016 30 845 24.95 11.2 52.1 36 -3.2 26.2 11.45 0.451
17:34 1016 30 845 24.95 11.2 52.2 34 -4.2 24.5 11.49 0.452
17:35 1016 30 845 24.95 11.2 52.2 35 -3.7 25.3 11.48 0.452
17:36 1016 30 845 24.95 11.2 52.2 39 -2.2 28 11.45 0.451
17:37 1016 30 845 24.95 11.2 52.2 34 -3.9 25 11.42 0.45
17:38 1016 30 845 24.95 11.2 52.1 34 -3.9 25 11.45 0.451
17:39 1016 30 845 24.95 11.1 52.1 32 -4.7 23.5 11.4 0.449
17:40 1016 30 845 24.95 11.2 52.1 35 -3.6 25.6 11.37 0.448
17:41 1016 30 845 24.95 11.1 52 38 -2.6 27.3 11.42 0.45
17:42 1016 30 845 24.95 11.1 52.1 34 -4 24.8 11.44 0.45
17:43 1016 30 845 24.95 11.1 52 34 -4.2 24.4 11.37 0.448
17:44 1016 30 845 24.95 11.2 52.1 34 -3.9 25 11.4 0.449
17:45 1016 30 845 24.95 11.2 52.2 37 -3 26.6 11.45 0.451
17:46 1016 30 845 24.95 11.3 52.3 43 -0.8 30.6 11.52 0.454
17:47 1016 30 845 24.95 11.4 52.4 33 -4.3 24.2 11.63 0.458
17:48 1016 30 845 24.95 11.4 52.6 33 -4.3 24.2 11.63 0.458
17:49 1016 30 845 24.95 11.3 52.3 34 -3.8 25.2 11.55 0.455
17:50 1016 30 845 24.95 11.3 52.3 31 -5.1 22.8 11.45 0.451
17:51 1016 30 845 24.95 11.2 52.2 33 -4.3 24.3 11.41 0.449
17:52 1016 30 845 24.95 11.3 52.3 35 -3.8 25.2 11.43 0.45
17:53 1016 30 845 24.95 11.3 52.3 35 -3.5 25.8 11.45 0.451
17:54 1016 30 845 24.95 11.3 52.3 35 -3.5 25.8 11.43 0.45
17:55 1016 30 845 24.95 11.2 52.2 33 -4.5 24 11.39 0.448
17:56 1016 30 845 24.95 11.2 52.1 32 -4.7 23.6 11.36 0.447
17:57 1016 30 845 24.95 11.2 52.1 31 -5.3 22.4 11.39 0.448
17:58 1016 30 845 24.95 11.2 52.1 35 -3.5 25.7 11.33 0.446
17:59 1016 30 845 24.95 11.2 52.1 39 -2.1 28.2 11.36 0.447
18:00 1016 30 845 24.95 11.2 52.2 34 -4.1 24.6 11.49 0.452
18:01 1016 30 845 24.95 11.1 52.1 33 -4.7 23.6 11.41 0.449
18:02 1016 30 845 24.95 11.1 52.1 42 -1.4 29.5 11.44 0.45
18:03 1016 30 845 24.95 11.2 52.1 38 -2.7 27.2 11.5 0.453
18:04 1016 30 845 24.95 11.2 52.2 47 0.4 32.7 11.59 0.456
18:05 1016 30 845 24.95 11.2 52.2 47 0.4 32.8 11.54 0.454
18:06 1016 30 845 24.95 11 51.8 46 -0.1 31.8 11.39 0.448
18:07 1016 30 845 24.95 10.7 51.3 50 0.7 33.3 11.22 0.442
18:08 1016 30 845 24.95 10.6 51 47 -0.3 31.4 11.1 0.437
18:09 1016 30 845 24.95 10.5 50.8 52 1.1 34 11.01 0.433
18:10 1016 30 845 24.95 10.4 50.8 53 1.3 34.3 10.97 0.432
18:11 1016 30 845 24.95 10.4 50.7 47 -0.2 31.6 10.9 0.429
18:12 1016 30 845 24.95 10.3 50.5 50 0.4 32.8 10.71 0.422
18:13 1016 30 845 24.95 10.2 50.4 46 -0.9 30.4 10.69 0.421
18:14 1016 30 845 24.95 10.3 50.5 47 -0.6 31 10.68 0.42
18:15 1016 30 845 24.95 10.3 50.6 47 -0.6 30.9 10.77 0.424
18:16 1016 30 845 24.95 10.3 50.5 44 -1.5 29.3 10.75 0.423
18:17 1016 30 845 24.95 10.3 50.5 45 -1.1 30.1 10.82 0.426
18:18 1016 30 845 24.95 10.3 50.5 52 0.8 33.5 10.84 0.427
18:19 1016 30 845 24.95 10.3 50.5 45 -1 30.2 10.88 0.428
18:20 1016 30 845 24.95 10.2 50.4 53 1.2 34.1 10.79 0.425
18:21 1016 30 845 24.95 10.2 50.4 52 1 33.7 10.77 0.424
18:22 1016 30 845 24.95 10.2 50.3 51 0.5 32.9 10.74 0.423
18:23 1016 30 845 24.95 10.1 50.3 55 1.5 34.7 10.63 0.419
18:24 1016 30 845 24.95 10.1 50.1 54 1.2 34.1 10.58 0.417
18:25 1016 30 845 24.95 10 50 56 1.8 35.2 10.51 0.414
18:26 1016 30 845 24.95 10 50 49 -0.3 31.5 10.5 0.413
18:27 1016 30 845 24.95 10 50 53 0.9 33.6 10.5 0.413
18:28 1016 30 845 24.95 10.1 50.1 50 0.1 32.2 10.52 0.414
18:29 1016 30 845 24.95 10.1 50.1 45 -1.2 29.8 10.55 0.415
18:30 1016 30 845 24.95 10.1 50.2 48 -0.2 31.6 10.55 0.415
18:31 1016 30 845 24.95 10.1 50.3 49 -0.2 31.7 10.6 0.417
18:32 1016 30 845 24.95 10.2 50.3 51 0.5 32.8 10.65 0.419
18:33 1016 30 845 24.95 10.2 50.4 52 0.9 33.7 10.74 0.423
18:34 1016 30 845 24.95 10.2 50.4 55 1.6 34.9 10.71 0.422
18:35 1016 30 845 24.95 10.1 50.2 54 1.2 34.2 10.62 0.418
18:36 1016 30 845 24.95 10 50 55 1.5 34.6 10.54 0.415
18:37 1016 30 845 24.95 10 50 55 1.3 34.4 10.5 0.413
18:38 1016 30 845 24.95 10.1 50.1 56 1.8 35.3 10.57 0.416
18:39 1016 30 845 24.95 10 50.1 57 1.9 35.5 10.57 0.416
18:40 1016 30 845 24.95 10 50 56 1.6 34.8 10.51 0.414
18:41 1016 30 845 24.95 9.9 49.8 51 0.2 32.3 10.42 0.41
18:42 1016 30 845 24.95 9.9 49.8 52 0.5 32.9 10.4 0.409
18:43 1016 30 845 24.95 9.9 49.8 53 0.9 33.5 10.39 0.409
18:44 1016 30 845 24.95 9.9 49.7 54 1 33.8 10.37 0.408
18:45 1016 30 845 24.95 9.9 49.7 56 1.6 34.9 10.33 0.407
18:46 1016 30 845 24.95 9.8 49.7 55 1.2 34.1 10.34 0.407
18:47 1016 30 845 24.95 9.9 49.8 58 2.1 35.8 10.39 0.409
18:48 1016 30 845 24.95 9.9 49.8 51 0.2 32.3 10.4 0.409
18:49 1016 30 845 24.95 9.9 49.9 51 0.4 32.7 10.39 0.409
18:50 1016 30 845 24.95 9.9 49.8 51 0.3 32.5 10.33 0.407
18:51 1016 30 845 24.95 9.8 49.7 57 1.8 35.2 10.3 0.406
18:52 1016 30 845 24.95 9.9 49.8 50 -0.1 31.8 10.35 0.407
18:53 1016 30 845 24.95 9.9 49.7 51 0.3 32.6 10.34 0.407
18:54 1016 30 845 24.95 9.9 49.9 52 0.7 33.3 10.38 0.409
18:55 1016 30 845 24.95 9.9 49.8 57 1.9 35.4 10.34 0.407
18:56 1016 30 845 24.95 9.8 49.7 55 1.3 34.3 10.31 0.406
18:57 1016 30 845 24.95 9.7 49.5 58 2 35.5 10.25 0.404
18:58 1016 30 845 24.95 9.6 49.4 58 1.8 35.3 10.13 0.399
18:59 1016 30 845 24.95 9.6 49.2 60 2.2 36 10.03 0.395
19:00 1016 30 845 24.95 9.5 49 61 2.4 36.3 9.94 0.391
19:01 1016 30 845 24.95 9.3 48.8 61 2.2 36 9.83 0.387
19:02 1016 30 845 24.95 9.2 48.6 61 2.1 35.8 9.69 0.381
19:03 1016 30 845 24.95 9.1 48.5 63 2.6 36.6 9.67 0.381
19:04 1016 30 845 24.95 9.1 48.4 61 2.1 35.9 9.62 0.379
19:05 1016 30 845 24.95 9.2 48.5 62 2.2 36 9.66 0.38
19:06 1016 30 845 24.95 9.2 48.5 61 2.1 35.7 9.71 0.382
19:07 1016 30 845 24.95 9.2 48.6 60 1.9 35.5 9.73 0.383
19:08 1016 30 845 24.95 9.3 48.7 60 1.9 35.4 9.72 0.383
19:09 1016 30 845 24.95 9.2 48.6 63 2.5 36.5 9.75 0.384
19:10 1016 30 845 24.95 9.2 48.6 60 1.9 35.4 9.69 0.381
19:11 1016 30 845 24.95 9.2 48.5 62 2.2 36 9.63 0.379
19:12 1016 30 845 24.95 9.1 48.4 63 2.5 36.4 9.61 0.378
19:13 1016 30 845 24.95 9.1 48.3 62 2.2 35.9 9.53 0.375
19:14 1016 30 845 24.95 9 48.3 63 2.4 36.4 9.47 0.373
19:15 1016 30 845 24.95 9 48.1 63 2.3 36.2 9.44 0.372
19:16 1016 30 845 24.95 8.9 48 62 2 35.7 9.39 0.37
19:17 1016 30 845 24.95 8.8 47.9 65 2.6 36.7 9.29 0.366
19:18 1016 30 845 24.95 8.7 47.7 65 2.5 36.4 9.2 0.362
19:19 1016 30 845 24.95 8.7 47.6 63 2.2 35.9 9.11 0.359
19:20 1016 30 845 24.95 8.6 47.5 63 2 35.7 9.05 0.356
19:21 1016 30 845 24.95 8.6 47.5 64 2.3 36.1 8.99 0.354
19:22 1016 30 845 24.95 8.5 47.3 66 2.6 36.7 8.96 0.353
19:23 1016 30 845 24.95 8.4 47.2 67 2.8 37 8.85 0.348
19:24 1016 30 845 24.95 8.3 47 68 2.8 37 8.76 0.345
19:25 1016 30 845 24.95 8.2 46.7 68 2.6 36.7 8.64 0.34
19:26 1016 30 845 24.95 8.2 46.7 68 2.6 36.6 8.54 0.336
19:27 1016 30 846 24.98 8.1 46.5 67 2.3 36.2 8.49 0.334
19:28 1016 30 846 24.98 8 46.4 68 2.5 36.5 8.43 0.332
19:29 1016 30 846 24.98 7.9 46.3 68 2.4 36.3 8.34 0.328
19:30 1016 30 846 24.98 7.9 46.2 68 2.4 36.2 8.29 0.326
19:31 1016 30 846 24.98 7.8 46.1 69 2.5 36.4 8.23 0.324
19:32 1016 30 846 24.98 7.8 46 68 2.3 36.2 8.18 0.322
19:33 1016 30 846 24.98 7.7 45.9 68 2.3 36.1 8.12 0.32
19:34 1016 30 846 24.98 7.7 45.8 67 2 35.6 8.07 0.318
19:35 1016 30 846 24.98 7.6 45.8 68 2.1 35.8 8.03 0.316
19:36 1016 30 846 24.98 7.6 45.7 69 2.3 36.1 8.02 0.316
19:37 1016 30 846 24.98 7.6 45.6 70 2.4 36.3 7.97 0.314
19:38 1016 30 846 24.98 7.4 45.4 70 2.4 36.2 7.85 0.309
19:39 1016 30 846 24.98 7.4 45.2 71 2.4 36.3 7.79 0.307
19:40 1016 30 846 24.98 7.3 45.1 71 2.4 36.3 7.69 0.303
19:41 1016 30 846 24.98 7.2 45 70 2.1 35.9 7.66 0.302
19:42 1016 30 846 24.98 7.2 44.9 70 2.1 35.8 7.62 0.3
19:43 1016 30 846 24.98 7.2 44.9 70 2.1 35.8 7.59 0.299
19:44 1016 30 846 24.98 7.1 44.8 71 2.1 35.8 7.56 0.298
19:45 1016 30 846 24.98 7.1 44.8 71 2.2 35.9 7.49 0.295
19:46 1017 30.03 846 24.98 7.1 44.7 70 2 35.7 7.43 0.293
19:47 1017 30.03 846 24.98 7 44.6 70 2 35.6 7.41 0.292
19:48 1017 30.03 846 24.98 6.9 44.5 72 2.2 35.9 7.37 0.29
19:49 1017 30.03 846 24.98 6.8 44.3 72 2.1 35.9 7.26 0.286
19:50 1017 30.03 846 24.98 6.8 44.2 73 2.2 36 7.2 0.283
19:51 1017 30.03 846 24.98 6.7 44 73 2.1 35.8 7.08 0.279
19:52 1017 30.03 846 24.98 6.6 43.8 72 2 35.5 6.99 0.275
19:53 1017 30.03 846 24.98 6.6 43.8 73 2 35.7 6.984 0.275
19:54 1017 30.03 846 24.98 6.5 43.7 73 2 35.6 6.9 0.272
19:55 1017 30.03 846 24.98 6.4 43.6 74 2.2 35.9 6.832 0.269
19:56 1017 30.03 846 24.98 6.4 43.5 75 2.2 35.9 6.798 0.268
19:57 1017 30.03 846 24.98 6.3 43.4 75 2.2 35.9 6.759 0.266
19:58 1017 30.03 846 24.98 6.3 43.3 75 2.2 36 6.713 0.264
19:59 1017 30.03 846 24.98 6.3 43.3 75 2.2 35.9 6.64 0.261
20:00 1017 30.03 846 24.98 6.3 43.3 75 2.1 35.8 6.651 0.262
20:01 1017 30.03 846 24.98 6.2 43.2 74 2 35.6 6.696 0.264
20:02 1017 30.03 846 24.98 6.3 43.3 74 2 35.6 6.697 0.264
20:03 1017 30.03 846 24.98 6.3 43.3 74 2 35.6 6.691 0.263
20:04 1017 30.03 846 24.98 6.2 43.2 75 2.1 35.7 6.68 0.263
20:05 1017 30.03 846 24.98 6.2 43.1 75 2.1 35.8 6.623 0.261
20:06 1017 30.03 846 24.98 6.1 43 76 2.2 36 6.561 0.258
20:07 1017 30.03 846 24.98 6 42.8 77 2.3 36.2 6.454 0.254
20:08 1017 30.03 846 24.98 5.9 42.6 78 2.3 36.2 6.359 0.25
20:09 1017 30.03 846 24.98 5.9 42.6 79 2.5 36.4 6.28 0.247
20:10 1017 30.03 846 24.98 5.8 42.5 79 2.5 36.6 6.219 0.245
20:11 1017 30.03 846 24.98 5.8 42.4 80 2.5 36.6 6.204 0.244
20:12 1017 30.03 846 24.98 5.8 42.5 80 2.7 36.8 6.215 0.245
20:13 1017 30.03 846 24.98 5.8 42.4 81 2.7 36.9 6.239 0.246
20:14 1017 30.03 846 24.98 5.8 42.4 80 2.6 36.8 6.212 0.245
20:15 1017 30.03 846 24.98 5.7 42.3 80 2.6 36.7 6.178 0.243
20:16 1017 30.03 846 24.98 5.7 42.3 80 2.6 36.7 6.111 0.241
20:17 1017 30.03 846 24.98 5.6 42.2 80 2.5 36.6 6.078 0.239
20:18 1017 30.03 846 24.98 5.6 42.1 80 2.4 36.3 6.038 0.238
20:19 1017 30.03 846 24.98 5.6 42.1 79 2.3 36.1 6.044 0.238
20:20 1017 30.03 846 24.98 5.7 42.2 77 2 35.6 6.034 0.238
20:21 1017 30.03 846 24.98 5.7 42.3 77 2 35.6 6.113 0.241
20:22 1017 30.03 846 24.98 5.8 42.4 77 2 35.6 6.159 0.242
20:23 1017 30.03 846 24.98 5.7 42.3 76 1.9 35.4 6.143 0.242
20:24 1017 30.03 846 24.98 5.7 42.3 76 1.9 35.4 6.08 0.239
20:25 1017 30.03 846 24.98 5.6 42.1 76 1.8 35.2 6.024 0.237
20:26 1017 30.03 846 24.98 5.6 42 76 1.7 35.1 5.974 0.235
20:27 1017 30.03 846 24.98 5.5 42 77 1.7 35.1 5.951 0.234
20:28 1017 30.03 846 24.98 5.5 41.9 76 1.7 35 5.907 0.233
20:29 1017 30.03 846 24.98 5.5 41.9 76 1.6 34.9 5.856 0.231
20:30 1017 30.03 846 24.98 5.4 41.8 76 1.5 34.7 5.873 0.231
20:31 1017 30.03 846 24.98 5.4 41.8 76 1.5 34.7 5.856 0.231
20:32 1017 30.03 846 24.98 5.4 41.8 76 1.5 34.7 5.839 0.23
20:33 1017 30.03 846 24.98 5.4 41.8 75 1.4 34.5 5.794 0.228
20:34 1017 30.03 846 24.98 5.4 41.7 75 1.4 34.5 5.806 0.229
20:35 1017 30.03 846 24.98 5.4 41.7 74 1.1 34 5.795 0.228
20:36 1017 30.03 846 24.98 5.4 41.8 74 1.2 34.2 5.834 0.23
20:37 1017 30.03 846 24.98 5.4 41.8 74 1.2 34.2 5.812 0.229
20:38 1017 30.03 846 24.98 5.4 41.7 74 1.1 34 5.778 0.227
20:39 1017 30.03 846 24.98 5.3 41.6 74 1.1 34 5.727 0.225
20:40 1017 30.03 846 24.98 5.3 41.5 74 1.1 34 5.688 0.224
20:41 1017 30.03 846 24.98 5.2 41.4 74 1 33.8 5.609 0.221
20:42 1017 30.03 846 24.98 5.1 41.2 74 1 33.7 5.58 0.22
20:43 1017 30.03 846 24.98 5 41.1 75 0.9 33.7 5.467 0.215
20:44 1017 30.03 846 24.98 4.9 40.9 75 0.8 33.5 5.377 0.212
20:45 1017 30.03 846 24.98 4.9 40.9 75 0.8 33.5 5.286 0.208
20:46 1017 30.03 846 24.98 4.8 40.7 75 0.8 33.4 5.27 0.207
20:47 1017 30.03 846 24.98 4.8 40.6 75 0.8 33.4 5.185 0.204
20:48 1017 30.03 846 24.98 4.7 40.5 76 0.8 33.5 5.145 0.203
20:49 1017 30.03 846 24.98 4.6 40.3 77 0.9 33.6 5.032 0.198
20:50 1017 30.03 846 24.98 4.4 39.8 78 0.9 33.7 4.84 0.191
20:51 1017 30.03 846 24.98 4.2 39.5 80 1 33.8 4.625 0.182
20:52 1017 30.03 846 24.98 4 39.2 81 1.1 33.9 4.506 0.177
20:53 1017 30.03 846 24.98 4 39.1 82 1.1 34 4.427 0.174
20:54 1017 30.03 846 24.98 3.9 39.1 82 1.2 34.1 4.343 0.171
20:55 1017 30.03 846 24.98 3.8 38.9 84 1.3 34.4 4.298 0.169
20:56 1017 30.03 846 24.98 3.9 39 84 1.5 34.7 4.327 0.17
20:57 1017 30.03 846 24.98 3.9 39 84 1.5 34.7 4.367 0.172
20:58 1017 30.03 846 24.98 4 39.2 84 1.5 34.7 4.419 0.174
20:59 1017 30.03 846 24.98 4 39.3 83 1.5 34.6 4.452 0.175
21:00 1017 30.03 846 24.98 4 39.2 82 1.3 34.3 4.442 0.175
21:01 1017 30.03 846 24.98 4.1 39.5 81 1.2 34.2 4.54 0.179
21:02 1017 30.03 846 24.98 4.3 39.8 80 1.2 34.2 4.704 0.185
21:03 1017 30.03 846 24.98 4.4 39.9 80 1.3 34.3 4.767 0.188
21:04 1017 30.03 846 24.98 4.3 39.7 81 1.3 34.3 4.717 0.186
21:05 1017 30.03 846 24.98 4.2 39.6 81 1.2 34.2 4.655 0.183
21:06 1017 30.03 846 24.98 4.2 39.5 81 1.2 34.2 4.639 0.183
21:07 1017 30.03 846 24.98 4.1 39.4 82 1.3 34.3 4.527 0.178
21:08 1017 30.03 846 24.98 4.1 39.3 81 1.2 34.1 4.504 0.177
21:09 1017 30.03 846 24.98 4.1 39.4 82 1.2 34.2 4.539 0.179
21:10 1017 30.03 846 24.98 4.1 39.4 82 1.2 34.2 4.522 0.178
21:11 1017 30.03 846 24.98 4 39.2 82 1.2 34.2 4.426 0.174
21:12 1017 30.03 846 24.98 3.8 38.9 83 1.2 34.1 4.291 0.169
21:13 1017 30.03 846 24.98 3.8 38.8 83 1.2 34.1 4.184 0.165
21:14 1017 30.03 846 24.98 3.7 38.7 83 1.1 33.9 4.133 0.163
21:15 1017 30.03 846 24.98 3.6 38.5 83 1 33.8 4.015 0.158
21:16 1017 30.03 847 25.01 3.4 38.2 83 0.9 33.6 3.817 0.15
21:17 1017 30.03 847 25.01 3.4 38.1 83 0.8 33.4 3.834 0.151
21:18 1017 30.03 847 25.01 3.5 38.4 82 0.8 33.4 3.97 0.156
21:19 1017 30.03 847 25.01 3.7 38.6 81 0.8 33.4 4.117 0.162
21:20 1017 30.03 847 25.01 3.7 38.7 83 1.2 34.2 4.174 0.164
21:21 1017 30.03 847 25.01 3.8 38.8 84 1.3 34.4 4.214 0.166
21:22 1017 30.03 847 25.01 3.8 38.9 84 1.3 34.4 4.237 0.167
21:23 1017 30.03 847 25.01 3.8 38.9 85 1.5 34.7 4.265 0.168
21:24 1017 30.03 847 25.01 3.9 39.1 84 1.6 34.8 4.316 0.17
21:25 1017 30.03 847 25.01 4 39.2 84 1.6 34.8 4.373 0.172
21:26 1017 30.03 847 25.01 4 39.1 84 1.6 34.8 4.362 0.172
21:27 1017 30.03 847 25.01 3.9 39 85 1.6 34.9 4.3 0.169
21:28 1017 30.03 847 25.01 3.9 39.1 85 1.6 34.8 4.305 0.169
21:29 1017 30.03 847 25.01 3.9 39 84 1.5 34.7 4.3 0.169
21:30 1017 30.03 847 25.01 3.9 39 85 1.5 34.7 4.26 0.168
21:31 1017 30.03 847 25.01 3.8 38.9 85 1.5 34.7 4.249 0.167
21:32 1017 30.03 847 25.01 3.8 38.8 85 1.5 34.6 4.142 0.163
21:33 1017 30.03 847 25.01 3.7 38.7 85 1.5 34.6 4.074 0.16
21:34 1017 30.03 847 25.01 3.7 38.6 86 1.5 34.6 4.046 0.159
21:35 1017 30.03 847 25.01 3.6 38.5 86 1.4 34.5 4.017 0.158
21:36 1017 30.03 847 25.01 3.6 38.5 85 1.3 34.4 4.034 0.159
21:37 1017 30.03 847 25.01 3.7 38.6 85 1.4 34.5 4.023 0.158
21:38 1017 30.03 847 25.01 3.7 38.6 85 1.4 34.5 4.063 0.16
21:39 1017 30.03 847 25.01 3.7 38.7 84 1.3 34.4 4.136 0.163
21:40 1017 30.03 847 25.01 3.8 38.8 84 1.3 34.3 4.193 0.165
21:41 1017 30.03 847 25.01 3.8 38.9 83 1.2 34.2 4.17 0.164
21:42 1017 30.03 847 25.01 3.8 38.9 83 1.2 34.1 4.204 0.166
21:43 1017 30.03 847 25.01 3.8 38.9 82 1.1 34 4.199 0.165
21:44 1017 30.03 847 25.01 3.8 38.9 82 1.1 33.9 4.171 0.164
21:45 1017 30.03 847 25.01 3.8 38.9 82 1 33.9 4.189 0.165
21:46 1017 30.03 847 25.01 3.8 38.8 82 1 33.9 4.195 0.165
21:47 1017 30.03 847 25.01 3.8 38.9 82 1.1 33.9 4.207 0.166
21:48 1017 30.03 847 25.01 3.8 38.9 82 1 33.8 4.185 0.165
21:49 1017 30.03 847 25.01 3.9 39 81 0.9 33.7 4.168 0.164
21:50 1017 30.03 847 25.01 3.9 39 81 0.9 33.6 4.231 0.167
21:51 1017 30.03 847 25.01 3.9 39 81 0.9 33.6 4.271 0.168
21:52 1017 30.03 847 25.01 3.8 38.9 81 0.9 33.6 4.197 0.165
21:53 1017 30.03 847 25.01 3.8 38.8 82 0.9 33.7 4.153 0.164
21:54 1018 30.06 847 25.01 3.7 38.7 82 0.9 33.6 4.16 0.164
21:55 1018 30.06 847 25.01 3.8 38.8 82 1 33.7 4.126 0.162
21:56 1018 30.06 847 25.01 3.8 38.8 82 0.9 33.7 4.143 0.163
21:57 1018 30.06 847 25.01 3.7 38.7 82 0.9 33.7 4.12 0.162
21:58 1018 30.06 847 25.01 3.7 38.7 82 0.9 33.7 4.103 0.162
21:59 1018 30.06 847 25.01 3.7 38.7 82 0.9 33.6 4.139 0.163
22:00 1018 30.06 847 25.01 3.7 38.7 82 0.9 33.6 4.094 0.161
22:01 1018 30.06 847 25.01 3.7 38.6 81 0.8 33.5 4.06 0.16
22:02 1018 30.06 847 25.01 3.7 38.6 81 0.7 33.3 3.993 0.157
22:03 1018 30.06 847 25.01 3.6 38.6 81 0.7 33.2 3.988 0.157
22:04 1018 30.06 847 25.01 3.7 38.6 80 0.6 33.1 3.993 0.157
22:05 1018 30.06 847 25.01 3.6 38.6 80 0.6 33 3.983 0.157
22:06 1018 30.06 847 25.01 3.6 38.5 80 0.6 33 3.961 0.156
22:07 1018 30.06 847 25.01 3.7 38.6 80 0.5 32.8 3.989 0.157
22:08 1018 30.06 847 25.01 3.7 38.6 79 0.5 32.8 4.012 0.158
22:09 1018 30.06 847 25.01 3.7 38.6 80 0.5 32.9 4.007 0.158
22:10 1018 30.06 847 25.01 3.7 38.6 80 0.6 33 3.996 0.157
22:11 1018 30.06 847 25.01 3.6 38.6 80 0.6 33.1 3.991 0.157
22:12 1018 30.06 847 25.01 3.6 38.5 81 0.6 33.1 3.911 0.154
22:13 1018 30.06 847 25.01 3.5 38.3 81 0.5 33 3.872 0.152
22:14 1018 30.06 847 25.01 3.5 38.3 81 0.5 33 3.895 0.153
22:15 1018 30.06 847 25.01 3.4 38.2 81 0.5 33 3.816 0.15
22:16 1018 30.06 847 25.01 3.4 38.1 82 0.6 33.1 3.742 0.147
22:17 1018 30.06 847 25.01 3.3 38 82 0.6 33 3.72 0.146
22:18 1018 30.06 847 25.01 3.3 38 82 0.6 33 3.663 0.144
22:19 1018 30.06 847 25.01 3.3 37.9 82 0.5 32.9 3.658 0.144
22:20 1018 30.06 847 25.01 3.3 37.9 82 0.5 32.8 3.618 0.142
22:21 1018 30.06 847 25.01 3.2 37.8 82 0.4 32.7 3.635 0.143
22:22 1018 30.06 847 25.01 3.3 37.9 81 0.3 32.6 3.63 0.143
22:23 1018 30.06 847 25.01 3.3 37.9 81 0.3 32.5 3.613 0.142
22:24 1018 30.06 847 25.01 3.2 37.8 80 0.1 32.2 3.641 0.143
22:25 1018 30.06 847 25.01 3.3 37.9 80 0.1 32.2 3.641 0.143
22:26 1018 30.06 847 25.01 3.3 37.9 80 0.2 32.3 3.636 0.143
22:27 1018 30.06 847 25.01 3.3 37.9 80 0.2 32.3 3.653 0.144
22:28 1018 30.06 847 25.01 3.3 37.9 80 0.2 32.4 3.647 0.144
22:29 1018 30.06 847 25.01 3.3 38 80 0.2 32.4 3.693 0.145
22:30 1018 30.06 847 25.01 3.3 38 80 0.3 32.5 3.681 0.145
22:31 1018 30.06 847 25.01 3.3 37.9 80 0.2 32.4 3.67 0.144
22:32 1018 30.06 847 25.01 3.3 37.9 81 0.3 32.5 3.591 0.141
22:33 1018 30.06 847 25.01 3.3 37.9 80 0.2 32.3 3.608 0.142
22:34 1018 30.06 847 25.01 3.3 37.9 80 0.2 32.4 3.648 0.144
22:35 1018 30.06 847 25.01 3.3 37.9 80 0.2 32.4 3.642 0.143
22:36 1018 30.06 847 25.01 3.3 37.9 80 0.2 32.3 3.642 0.143
22:37 1018 30.06 847 25.01 3.2 37.7 80 0.1 32.2 3.551 0.14
22:38 1018 30.06 847 25.01 3.2 37.7 80 0.1 32.2 3.506 0.138
22:39 1018 30.06 847 25.01 3.1 37.6 81 0.1 32.2 3.467 0.136
22:40 1018 30.06 847 25.01 3 37.5 82 0.2 32.4 3.404 0.134
22:41 1018 30.06 847 25.01 3 37.4 81 0.1 32.1 3.359 0.132
22:42 1018 30.06 847 25.01 3 37.4 81 -0 32 3.37 0.133
22:43 1018 30.06 847 25.01 2.9 37.2 81 -0.1 31.9 3.263 0.128
22:44 1018 30.06 847 25.01 2.8 37.1 81 -0.1 31.8 3.201 0.126
22:45 1018 30.06 847 25.01 2.8 37 81 -0.1 31.8 3.172 0.125
22:46 1018 30.06 847 25.01 2.7 36.9 81 -0.2 31.6 3.065 0.121
22:47 1018 30.06 847 25.01 2.6 36.6 82 -0.2 31.6 2.935 0.116
22:48 1018 30.06 847 25.01 2.4 36.3 82 -0.4 31.3 2.85 0.112
22:49 1018 30.06 847 25.01 2.3 36.2 83 -0.3 31.4 2.731 0.108
22:50 1018 30.06 847 25.01 2.3 36.2 83 -0.3 31.5 2.742 0.108
22:51 1018 30.06 847 25.01 2.3 36.1 82 -0.4 31.3 2.663 0.105
22:52 1018 30.06 847 25.01 2.1 35.8 83 -0.5 31.1 2.527 0.099
22:53 1018 30.06 847 25.01 2 35.6 84 -0.5 31.2 2.419 0.095
22:54 1018 30.06 847 25.01 1.9 35.5 84 -0.5 31.1 2.335 0.092
22:55 1018 30.06 847 25.01 2 35.5 84 -0.4 31.2 2.352 0.093
22:56 1018 30.06 847 25.01 2.1 35.7 84 -0.4 31.3 2.425 0.095
22:57 1018 30.06 847 25.01 2.2 35.9 83 -0.4 31.2 2.453 0.097
22:58 1018 30.06 847 25.01 2.2 36 82 -0.5 31.1 2.521 0.099
22:59 1018 30.06 847 25.01 2.2 35.9 83 -0.4 31.2 2.533 0.1
23:00 1018 30.06 847 25.01 2.3 36.1 83 -0.4 31.3 2.567 0.101
23:01 1018 30.06 847 25.01 2.3 36.2 83 -0.3 31.4 2.629 0.104
23:02 1018 30.06 847 25.01 2.4 36.3 82 -0.3 31.4 2.754 0.108
23:03 1018 30.06 847 25.01 2.5 36.5 82 -0.4 31.4 2.788 0.11
23:04 1018 30.06 847 25.01 2.5 36.4 82 -0.3 31.4 2.789 0.11
23:05 1018 30.06 847 25.01 2.5 36.5 82 -0.3 31.4 2.851 0.112
23:06 1018 30.06 847 25.01 2.5 36.6 81 -0.5 31.2 2.857 0.112
23:07 1018 30.06 847 25.01 2.4 36.3 81 -0.5 31 2.767 0.109
23:08 1018 30.06 847 25.01 2.3 36.2 81 -0.5 31 2.728 0.107
23:09 1018 30.06 847 25.01 2.3 36.1 82 -0.5 31.1 2.621 0.103
23:10 1018 30.06 847 25.01 2.3 36.1 82 -0.5 31.2 2.655 0.105
23:11 1018 30.06 847 25.01 2.3 36.1 83 -0.3 31.4 2.627 0.103
23:12 1018 30.06 847 25.01 2.3 36.1 84 -0.2 31.6 2.644 0.104
23:13 1018 30.06 847 25.01 2.2 36 84 -0.2 31.6 2.605 0.103
23:14 1018 30.06 847 25.01 2.2 36 85 -0.1 31.8 2.611 0.103
23:15 1018 30.06 847 25.01 2.2 35.9 85 -0 31.9 2.583 0.102
23:16 1018 30.06 847 25.01 2.2 36 86 0.1 32.1 2.589 0.102
23:17 1018 30.06 847 25.01 2.2 36 86 0.1 32.2 2.617 0.103
23:18 1018 30.06 847 25.01 2.3 36.1 85 0.1 32.1 2.668 0.105
23:19 1018 30.06 847 25.01 2.3 36.1 85 0 32 2.6 0.102
23:20 1018 30.06 847 25.01 2.2 35.9 86 0 32 2.538 0.1
23:21 1018 30.06 847 25.01 2.1 35.8 86 -0 32 2.527 0.099
23:22 1018 30.06 847 25.01 2.1 35.8 85 -0.1 31.8 2.505 0.099
23:23 1018 30.06 847 25.01 2.1 35.7 85 -0.1 31.8 2.482 0.098
23:24 1018 30.06 847 25.01 2 35.6 86 -0.2 31.7 2.369 0.093
23:25 1018 30.06 847 25.01 1.9 35.5 86 -0.2 31.6 2.352 0.093
23:26 1018 30.06 847 25.01 1.9 35.4 86 -0.2 31.6 2.256 0.089
23:27 1018 30.06 847 25.01 1.8 35.2 86 -0.3 31.5 2.182 0.086
23:28 1018 30.06 847 25.01 1.8 35.2 87 -0.2 31.7 2.188 0.086
23:29 1018 30.06 847 25.01 1.8 35.2 87 -0.2 31.6 2.171 0.085
23:30 1018 30.06 847 25.01 1.8 35.3 86 -0.2 31.6 2.172 0.086
23:31 1018 30.06 847 25.01 1.8 35.2 87 -0.2 31.7 2.167 0.085
23:32 1018 30.06 847 25.01 1.7 35.1 87 -0.3 31.5 2.071 0.082
23:33 1018 30.06 847 25.01 1.6 35 86 -0.4 31.3 2.003 0.079
23:34 1018 30.06 847 25.01 1.5 34.7 88 -0.4 31.4 1.867 0.074
23:35 1018 30.06 847 25.01 1.4 34.5 88 -0.4 31.2 1.81 0.071
23:36 1018 30.06 847 25.01 1.3 34.4 88 -0.4 31.3 1.727 0.068
23:37 1018 30.06 847 25.01 1.2 34.2 89 -0.4 31.2 1.642 0.065
23:38 1018 30.06 847 25.01 1.3 34.3 89 -0.4 31.4 1.659 0.065
23:39 1018 30.06 847 25.01 1.4 34.5 88 -0.4 31.4 1.783 0.07
23:40 1018 30.06 847 25.01 1.5 34.8 88 -0.3 31.5 1.902 0.075
23:41 1018 30.06 847 25.01 1.6 34.8 87 -0.4 31.3 1.942 0.076
23:42 1018 30.06 847 25.01 1.5 34.7 87 -0.3 31.4 1.829 0.072
23:43 1018 30.06 847 25.01 1.4 34.5 88 -0.4 31.2 1.79 0.07
23:44 1018 30.06 847 25.01 1.4 34.5 87 -0.5 31.1 1.75 0.069
23:45 1018 30.06 847 25.01 1.3 34.3 88 -0.5 31.1 1.683 0.066
23:46 1018 30.06 847 25.01 1.2 34.2 89 -0.3 31.4 1.626 0.064
23:47 1018 30.06 847 25.01 1.3 34.4 89 -0.2 31.6 1.751 0.069
23:48 1018 30.06 847 25.01 1.5 34.7 88 -0.2 31.6 1.848 0.073
23:49 1018 30.06 847 25.01 1.5 34.7 88 -0.2 31.6 1.916 0.075
23:50 1018 30.06 847 25.01 1.6 34.8 88 -0.2 31.6 1.927 0.076
23:51 1018 30.06 847 25.01 1.6 35 87 -0.2 31.6 2.001 0.079
23:52 1018 30.06 847 25.01 1.6 34.9 87 -0.3 31.5 1.99 0.078
23:53 1018 30.06 847 25.01 1.7 35 87 -0.3 31.5 2.064 0.081
23:54 1018 30.06 847 25.01 1.8 35.2 86 -0.3 31.5 2.121 0.084
23:55 1018 30.06 847 25.01 1.8 35.3 85 -0.4 31.3 2.121 0.084
23:56 1018 30.06 847 25.01 1.8 35.3 85 -0.4 31.2 2.149 0.085
23:57 1018 30.06 847 25.01 1.8 35.3 85 -0.5 31.2 2.155 0.085
23:58 1018 30.06 847 25.01 1.8 35.3 85 -0.5 31.1 2.178 0.086
23:59 1018 30.06 847 25.01 1.8 35.3 85 -0.5 31.2 2.144 0.084
24:00 1018 30.06 847 25.01 1.8 35.2 85 -0.5 31.1 2.144 0.084